<?xml version="1.0" encoding="UTF-8" standalone="no" ?>
<gpx xmlns="http://www.topografix.com/GPX/1/1" xmlns:xsi="http://www.w3.org/2001/XMLSchema-instance" xsi:schemaLocation="http://www.topografix.com/GPX/1/1 http://www.topografix.com/GPX/1/1/gpx.xsd" version="1.1" creator="VisuGPX - https://www.visugpx.com">
  <metadata>
    <name>Aurignac - ND de Lorette  2013 04 17</name>
    <desc><![CDATA[
]]></desc>
  </metadata>
  <trk>
    <name><![CDATA[Aurignac - ND de Lorette  2013 04 17]]></name>
    <extensions>
      <line xmlns="http://www.topografix.com/GPX/gpx_style/0/2">
        <width>4</width>
      </line>
    </extensions>
    <trkseg>
      <trkpt lat="43.23605" lon="0.90758">
        <ele>310.6</ele>
        <time>2013-04-12T09:48:13.000Z</time>
      </trkpt>
      <trkpt lat="43.2361" lon="0.90761">
        <ele>309.2</ele>
        <time>2013-04-12T09:48:18.000Z</time>
      </trkpt>
      <trkpt lat="43.23614" lon="0.9078">
        <ele>306.8</ele>
        <time>2013-04-12T09:48:31.000Z</time>
      </trkpt>
      <trkpt lat="43.23612" lon="0.90802">
        <ele>304.4</ele>
        <time>2013-04-12T09:48:44.000Z</time>
      </trkpt>
      <trkpt lat="43.23608" lon="0.90826">
        <ele>302</ele>
        <time>2013-04-12T09:48:59.000Z</time>
      </trkpt>
      <trkpt lat="43.23608" lon="0.90834">
        <ele>300.5</ele>
        <time>2013-04-12T09:49:04.000Z</time>
      </trkpt>
      <trkpt lat="43.23619" lon="0.90852">
        <ele>298.6</ele>
        <time>2013-04-12T09:49:17.000Z</time>
      </trkpt>
      <trkpt lat="43.23625" lon="0.90857">
        <ele>299.6</ele>
        <time>2013-04-12T09:49:24.000Z</time>
      </trkpt>
      <trkpt lat="43.23627" lon="0.90861">
        <ele>299.1</ele>
        <time>2013-04-12T09:49:35.000Z</time>
      </trkpt>
      <trkpt lat="43.23631" lon="0.90862">
        <ele>298.6</ele>
        <time>2013-04-12T09:50:00.000Z</time>
      </trkpt>
      <trkpt lat="43.23633" lon="0.90864">
        <ele>298.6</ele>
        <time>2013-04-12T09:50:03.000Z</time>
      </trkpt>
      <trkpt lat="43.23644" lon="0.9088">
        <ele>298.1</ele>
        <time>2013-04-12T09:50:16.000Z</time>
      </trkpt>
      <trkpt lat="43.23645" lon="0.90883">
        <ele>298.6</ele>
        <time>2013-04-12T09:50:18.000Z</time>
      </trkpt>
      <trkpt lat="43.2365" lon="0.90893">
        <ele>299.1</ele>
        <time>2013-04-12T09:50:25.000Z</time>
      </trkpt>
      <trkpt lat="43.23658" lon="0.90917">
        <ele>300.1</ele>
        <time>2013-04-12T09:50:40.000Z</time>
      </trkpt>
      <trkpt lat="43.23665" lon="0.90939">
        <ele>301</ele>
        <time>2013-04-12T09:50:54.000Z</time>
      </trkpt>
      <trkpt lat="43.23671" lon="0.90958">
        <ele>302</ele>
        <time>2013-04-12T09:51:06.000Z</time>
      </trkpt>
      <trkpt lat="43.23677" lon="0.90976">
        <ele>303.4</ele>
        <time>2013-04-12T09:51:18.000Z</time>
      </trkpt>
      <trkpt lat="43.23683" lon="0.90994">
        <ele>302</ele>
        <time>2013-04-12T09:51:30.000Z</time>
      </trkpt>
      <trkpt lat="43.23689" lon="0.91021">
        <ele>301.5</ele>
        <time>2013-04-12T09:51:45.000Z</time>
      </trkpt>
      <trkpt lat="43.23693" lon="0.91041">
        <ele>300.5</ele>
        <time>2013-04-12T09:51:57.000Z</time>
      </trkpt>
      <trkpt lat="43.237" lon="0.91065">
        <ele>300.1</ele>
        <time>2013-04-12T09:52:12.000Z</time>
      </trkpt>
      <trkpt lat="43.23707" lon="0.91085">
        <ele>299.1</ele>
        <time>2013-04-12T09:52:24.000Z</time>
      </trkpt>
      <trkpt lat="43.23719" lon="0.91108">
        <ele>298.6</ele>
        <time>2013-04-12T09:52:40.000Z</time>
      </trkpt>
      <trkpt lat="43.23734" lon="0.91123">
        <ele>299.1</ele>
        <time>2013-04-12T09:52:55.000Z</time>
      </trkpt>
      <trkpt lat="43.23744" lon="0.9113">
        <ele>299.6</ele>
        <time>2013-04-12T09:53:06.000Z</time>
      </trkpt>
      <trkpt lat="43.23756" lon="0.91136">
        <ele>300.5</ele>
        <time>2013-04-12T09:53:17.000Z</time>
      </trkpt>
      <trkpt lat="43.23769" lon="0.91145">
        <ele>301.5</ele>
        <time>2013-04-12T09:53:29.000Z</time>
      </trkpt>
      <trkpt lat="43.23775" lon="0.91148">
        <ele>301.5</ele>
        <time>2013-04-12T09:53:38.000Z</time>
      </trkpt>
      <trkpt lat="43.23788" lon="0.91156">
        <ele>302.5</ele>
        <time>2013-04-12T09:53:51.000Z</time>
      </trkpt>
      <trkpt lat="43.23801" lon="0.91166">
        <ele>302.5</ele>
        <time>2013-04-12T09:54:04.000Z</time>
      </trkpt>
      <trkpt lat="43.23819" lon="0.91179">
        <ele>301</ele>
        <time>2013-04-12T09:54:21.000Z</time>
      </trkpt>
      <trkpt lat="43.2384" lon="0.91187">
        <ele>300.1</ele>
        <time>2013-04-12T09:54:38.000Z</time>
      </trkpt>
      <trkpt lat="43.23864" lon="0.91186">
        <ele>297.7</ele>
        <time>2013-04-12T09:54:54.000Z</time>
      </trkpt>
      <trkpt lat="43.23881" lon="0.91183">
        <ele>296.2</ele>
        <time>2013-04-12T09:55:08.000Z</time>
      </trkpt>
      <trkpt lat="43.23894" lon="0.91184">
        <ele>294.8</ele>
        <time>2013-04-12T09:55:19.000Z</time>
      </trkpt>
      <trkpt lat="43.23909" lon="0.91186">
        <ele>294.3</ele>
        <time>2013-04-12T09:55:31.000Z</time>
      </trkpt>
      <trkpt lat="43.2391" lon="0.91185">
        <ele>294.3</ele>
        <time>2013-04-12T09:55:43.000Z</time>
      </trkpt>
      <trkpt lat="43.2392" lon="0.91187">
        <ele>293.3</ele>
        <time>2013-04-12T09:55:53.000Z</time>
      </trkpt>
      <trkpt lat="43.23929" lon="0.91196">
        <ele>291.4</ele>
        <time>2013-04-12T09:56:04.000Z</time>
      </trkpt>
      <trkpt lat="43.23945" lon="0.91208">
        <ele>288.5</ele>
        <time>2013-04-12T09:56:19.000Z</time>
      </trkpt>
      <trkpt lat="43.23955" lon="0.91221">
        <ele>287.6</ele>
        <time>2013-04-12T09:56:33.000Z</time>
      </trkpt>
      <trkpt lat="43.23963" lon="0.91235">
        <ele>286.1</ele>
        <time>2013-04-12T09:56:43.000Z</time>
      </trkpt>
      <trkpt lat="43.23974" lon="0.91256">
        <ele>284.7</ele>
        <time>2013-04-12T09:56:57.000Z</time>
      </trkpt>
      <trkpt lat="43.23987" lon="0.91286">
        <ele>283.7</ele>
        <time>2013-04-12T09:57:16.000Z</time>
      </trkpt>
      <trkpt lat="43.23995" lon="0.91307">
        <ele>282.8</ele>
        <time>2013-04-12T09:57:29.000Z</time>
      </trkpt>
      <trkpt lat="43.24" lon="0.91329">
        <ele>283.2</ele>
        <time>2013-04-12T09:57:43.000Z</time>
      </trkpt>
      <trkpt lat="43.23991" lon="0.91349">
        <ele>283.2</ele>
        <time>2013-04-12T09:57:56.000Z</time>
      </trkpt>
      <trkpt lat="43.23978" lon="0.91362">
        <ele>282.8</ele>
        <time>2013-04-12T09:58:09.000Z</time>
      </trkpt>
      <trkpt lat="43.23958" lon="0.91383">
        <ele>283.7</ele>
        <time>2013-04-12T09:58:27.000Z</time>
      </trkpt>
      <trkpt lat="43.23948" lon="0.91398">
        <ele>283.7</ele>
        <time>2013-04-12T09:58:39.000Z</time>
      </trkpt>
      <trkpt lat="43.23937" lon="0.91416">
        <ele>283.2</ele>
        <time>2013-04-12T09:58:54.000Z</time>
      </trkpt>
      <trkpt lat="43.23932" lon="0.91423">
        <ele>283.2</ele>
        <time>2013-04-12T09:59:05.000Z</time>
      </trkpt>
      <trkpt lat="43.23929" lon="0.91427">
        <ele>282.8</ele>
        <time>2013-04-12T09:59:21.000Z</time>
      </trkpt>
      <trkpt lat="43.23918" lon="0.91447">
        <ele>282.8</ele>
        <time>2013-04-12T09:59:34.000Z</time>
      </trkpt>
      <trkpt lat="43.23906" lon="0.91468">
        <ele>282.3</ele>
        <time>2013-04-12T09:59:49.000Z</time>
      </trkpt>
      <trkpt lat="43.2389" lon="0.91488">
        <ele>282.8</ele>
        <time>2013-04-12T10:00:06.000Z</time>
      </trkpt>
      <trkpt lat="43.23876" lon="0.91502">
        <ele>283.2</ele>
        <time>2013-04-12T10:00:21.000Z</time>
      </trkpt>
      <trkpt lat="43.23856" lon="0.91519">
        <ele>283.7</ele>
        <time>2013-04-12T10:00:40.000Z</time>
      </trkpt>
      <trkpt lat="43.23839" lon="0.91516">
        <ele>284.2</ele>
        <time>2013-04-12T10:00:54.000Z</time>
      </trkpt>
      <trkpt lat="43.23816" lon="0.91506">
        <ele>286.6</ele>
        <time>2013-04-12T10:01:14.000Z</time>
      </trkpt>
      <trkpt lat="43.23798" lon="0.91498">
        <ele>289</ele>
        <time>2013-04-12T10:01:32.000Z</time>
      </trkpt>
      <trkpt lat="43.23795" lon="0.91494">
        <ele>289</ele>
        <time>2013-04-12T10:01:43.000Z</time>
      </trkpt>
      <trkpt lat="43.23795" lon="0.91493">
        <ele>289.5</ele>
        <time>2013-04-12T10:01:44.000Z</time>
      </trkpt>
      <trkpt lat="43.23791" lon="0.91468">
        <ele>290</ele>
        <time>2013-04-12T10:02:00.000Z</time>
      </trkpt>
      <trkpt lat="43.23787" lon="0.91445">
        <ele>290.5</ele>
        <time>2013-04-12T10:02:15.000Z</time>
      </trkpt>
      <trkpt lat="43.23772" lon="0.91425">
        <ele>291.9</ele>
        <time>2013-04-12T10:02:32.000Z</time>
      </trkpt>
      <trkpt lat="43.23758" lon="0.91414">
        <ele>292.9</ele>
        <time>2013-04-12T10:02:46.000Z</time>
      </trkpt>
      <trkpt lat="43.23745" lon="0.91422">
        <ele>294.3</ele>
        <time>2013-04-12T10:02:59.000Z</time>
      </trkpt>
      <trkpt lat="43.2373" lon="0.91434">
        <ele>295.7</ele>
        <time>2013-04-12T10:03:14.000Z</time>
      </trkpt>
      <trkpt lat="43.23716" lon="0.91446">
        <ele>297.2</ele>
        <time>2013-04-12T10:03:28.000Z</time>
      </trkpt>
      <trkpt lat="43.23703" lon="0.91459">
        <ele>298.1</ele>
        <time>2013-04-12T10:03:43.000Z</time>
      </trkpt>
      <trkpt lat="43.23692" lon="0.91475">
        <ele>300.1</ele>
        <time>2013-04-12T10:03:57.000Z</time>
      </trkpt>
      <trkpt lat="43.23692" lon="0.91477">
        <ele>300.5</ele>
        <time>2013-04-12T10:04:00.000Z</time>
      </trkpt>
      <trkpt lat="43.23687" lon="0.91496">
        <ele>300.1</ele>
        <time>2013-04-12T10:04:12.000Z</time>
      </trkpt>
      <trkpt lat="43.23685" lon="0.91497">
        <ele>300.1</ele>
        <time>2013-04-12T10:04:15.000Z</time>
      </trkpt>
      <trkpt lat="43.23671" lon="0.91496">
        <ele>301</ele>
        <time>2013-04-12T10:04:29.000Z</time>
      </trkpt>
      <trkpt lat="43.23666" lon="0.91496">
        <ele>301.5</ele>
        <time>2013-04-12T10:04:38.000Z</time>
      </trkpt>
      <trkpt lat="43.23661" lon="0.91497">
        <ele>302</ele>
        <time>2013-04-12T10:04:44.000Z</time>
      </trkpt>
      <trkpt lat="43.23652" lon="0.91494">
        <ele>303.4</ele>
        <time>2013-04-12T10:04:56.000Z</time>
      </trkpt>
      <trkpt lat="43.23641" lon="0.91489">
        <ele>304.4</ele>
        <time>2013-04-12T10:05:08.000Z</time>
      </trkpt>
      <trkpt lat="43.2363" lon="0.91488">
        <ele>306.8</ele>
        <time>2013-04-12T10:05:22.000Z</time>
      </trkpt>
      <trkpt lat="43.23624" lon="0.91484">
        <ele>307.8</ele>
        <time>2013-04-12T10:05:33.000Z</time>
      </trkpt>
      <trkpt lat="43.23614" lon="0.91479">
        <ele>309.2</ele>
        <time>2013-04-12T10:05:44.000Z</time>
      </trkpt>
      <trkpt lat="43.23601" lon="0.91468">
        <ele>310.6</ele>
        <time>2013-04-12T10:05:59.000Z</time>
      </trkpt>
      <trkpt lat="43.23592" lon="0.91461">
        <ele>311.6</ele>
        <time>2013-04-12T10:06:11.000Z</time>
      </trkpt>
      <trkpt lat="43.23584" lon="0.9145">
        <ele>312.1</ele>
        <time>2013-04-12T10:06:21.000Z</time>
      </trkpt>
      <trkpt lat="43.23578" lon="0.91442">
        <ele>313.5</ele>
        <time>2013-04-12T10:06:33.000Z</time>
      </trkpt>
      <trkpt lat="43.23573" lon="0.91438">
        <ele>314.5</ele>
        <time>2013-04-12T10:06:45.000Z</time>
      </trkpt>
      <trkpt lat="43.23566" lon="0.91426">
        <ele>316.4</ele>
        <time>2013-04-12T10:07:00.000Z</time>
      </trkpt>
      <trkpt lat="43.23559" lon="0.91418">
        <ele>319.3</ele>
        <time>2013-04-12T10:07:12.000Z</time>
      </trkpt>
      <trkpt lat="43.2355" lon="0.91409">
        <ele>320.7</ele>
        <time>2013-04-12T10:07:25.000Z</time>
      </trkpt>
      <trkpt lat="43.23541" lon="0.91402">
        <ele>321.7</ele>
        <time>2013-04-12T10:07:38.000Z</time>
      </trkpt>
      <trkpt lat="43.23533" lon="0.91395">
        <ele>323.1</ele>
        <time>2013-04-12T10:07:48.000Z</time>
      </trkpt>
      <trkpt lat="43.23522" lon="0.91386">
        <ele>324.1</ele>
        <time>2013-04-12T10:08:01.000Z</time>
      </trkpt>
      <trkpt lat="43.23511" lon="0.91375">
        <ele>325.5</ele>
        <time>2013-04-12T10:08:14.000Z</time>
      </trkpt>
      <trkpt lat="43.23509" lon="0.91372">
        <ele>326</ele>
        <time>2013-04-12T10:08:17.000Z</time>
      </trkpt>
      <trkpt lat="43.235" lon="0.91354">
        <ele>327</ele>
        <time>2013-04-12T10:08:31.000Z</time>
      </trkpt>
      <trkpt lat="43.23493" lon="0.91341">
        <ele>327.5</ele>
        <time>2013-04-12T10:08:45.000Z</time>
      </trkpt>
      <trkpt lat="43.23486" lon="0.91327">
        <ele>329.9</ele>
        <time>2013-04-12T10:08:59.000Z</time>
      </trkpt>
      <trkpt lat="43.2348" lon="0.91316">
        <ele>331.8</ele>
        <time>2013-04-12T10:09:11.000Z</time>
      </trkpt>
      <trkpt lat="43.23472" lon="0.91302">
        <ele>333.7</ele>
        <time>2013-04-12T10:09:25.000Z</time>
      </trkpt>
      <trkpt lat="43.23462" lon="0.91289">
        <ele>335.2</ele>
        <time>2013-04-12T10:09:40.000Z</time>
      </trkpt>
      <trkpt lat="43.23453" lon="0.91278">
        <ele>335.6</ele>
        <time>2013-04-12T10:09:55.000Z</time>
      </trkpt>
      <trkpt lat="43.23444" lon="0.91279">
        <ele>336.1</ele>
        <time>2013-04-12T10:10:07.000Z</time>
      </trkpt>
      <trkpt lat="43.23434" lon="0.91275">
        <ele>336.6</ele>
        <time>2013-04-12T10:10:18.000Z</time>
      </trkpt>
      <trkpt lat="43.23424" lon="0.91273">
        <ele>336.6</ele>
        <time>2013-04-12T10:10:30.000Z</time>
      </trkpt>
      <trkpt lat="43.23419" lon="0.91274">
        <ele>336.6</ele>
        <time>2013-04-12T10:10:43.000Z</time>
      </trkpt>
      <trkpt lat="43.23407" lon="0.91277">
        <ele>337.6</ele>
        <time>2013-04-12T10:10:57.000Z</time>
      </trkpt>
      <trkpt lat="43.23401" lon="0.91278">
        <ele>338</ele>
        <time>2013-04-12T10:11:07.000Z</time>
      </trkpt>
      <trkpt lat="43.23398" lon="0.9128">
        <ele>338.5</ele>
        <time>2013-04-12T10:11:13.000Z</time>
      </trkpt>
      <trkpt lat="43.23387" lon="0.91279">
        <ele>338.5</ele>
        <time>2013-04-12T10:11:23.000Z</time>
      </trkpt>
      <trkpt lat="43.23376" lon="0.91281">
        <ele>339.5</ele>
        <time>2013-04-12T10:11:34.000Z</time>
      </trkpt>
      <trkpt lat="43.23365" lon="0.91288">
        <ele>340</ele>
        <time>2013-04-12T10:11:47.000Z</time>
      </trkpt>
      <trkpt lat="43.23355" lon="0.91294">
        <ele>339.5</ele>
        <time>2013-04-12T10:11:59.000Z</time>
      </trkpt>
      <trkpt lat="43.23346" lon="0.91295">
        <ele>339.5</ele>
        <time>2013-04-12T10:12:07.000Z</time>
      </trkpt>
      <trkpt lat="43.23334" lon="0.91302">
        <ele>341.4</ele>
        <time>2013-04-12T10:12:18.000Z</time>
      </trkpt>
      <trkpt lat="43.23322" lon="0.91309">
        <ele>342.4</ele>
        <time>2013-04-12T10:12:30.000Z</time>
      </trkpt>
      <trkpt lat="43.23311" lon="0.91317">
        <ele>342.4</ele>
        <time>2013-04-12T10:12:42.000Z</time>
      </trkpt>
      <trkpt lat="43.23303" lon="0.91321">
        <ele>342.8</ele>
        <time>2013-04-12T10:12:50.000Z</time>
      </trkpt>
      <trkpt lat="43.23295" lon="0.91327">
        <ele>342.8</ele>
        <time>2013-04-12T10:12:59.000Z</time>
      </trkpt>
      <trkpt lat="43.23285" lon="0.91338">
        <ele>343.8</ele>
        <time>2013-04-12T10:13:11.000Z</time>
      </trkpt>
      <trkpt lat="43.23278" lon="0.91347">
        <ele>343.8</ele>
        <time>2013-04-12T10:13:22.000Z</time>
      </trkpt>
      <trkpt lat="43.23267" lon="0.91354">
        <ele>344.3</ele>
        <time>2013-04-12T10:13:33.000Z</time>
      </trkpt>
      <trkpt lat="43.23253" lon="0.91351">
        <ele>345.3</ele>
        <time>2013-04-12T10:13:46.000Z</time>
      </trkpt>
      <trkpt lat="43.23243" lon="0.91344">
        <ele>346.2</ele>
        <time>2013-04-12T10:13:57.000Z</time>
      </trkpt>
      <trkpt lat="43.23232" lon="0.91335">
        <ele>348.1</ele>
        <time>2013-04-12T10:14:10.000Z</time>
      </trkpt>
      <trkpt lat="43.23221" lon="0.91329">
        <ele>349.1</ele>
        <time>2013-04-12T10:14:23.000Z</time>
      </trkpt>
      <trkpt lat="43.23212" lon="0.91327">
        <ele>351</ele>
        <time>2013-04-12T10:14:33.000Z</time>
      </trkpt>
      <trkpt lat="43.232" lon="0.91325">
        <ele>353.4</ele>
        <time>2013-04-12T10:14:46.000Z</time>
      </trkpt>
      <trkpt lat="43.23186" lon="0.91322">
        <ele>356.3</ele>
        <time>2013-04-12T10:15:00.000Z</time>
      </trkpt>
      <trkpt lat="43.23175" lon="0.91322">
        <ele>358.2</ele>
        <time>2013-04-12T10:15:14.000Z</time>
      </trkpt>
      <trkpt lat="43.2316" lon="0.9132">
        <ele>359.7</ele>
        <time>2013-04-12T10:15:28.000Z</time>
      </trkpt>
      <trkpt lat="43.23152" lon="0.91312">
        <ele>360.2</ele>
        <time>2013-04-12T10:15:37.000Z</time>
      </trkpt>
      <trkpt lat="43.23145" lon="0.91291">
        <ele>363</ele>
        <time>2013-04-12T10:15:52.000Z</time>
      </trkpt>
      <trkpt lat="43.23141" lon="0.91271">
        <ele>364.5</ele>
        <time>2013-04-12T10:16:06.000Z</time>
      </trkpt>
      <trkpt lat="43.23134" lon="0.91256">
        <ele>366.4</ele>
        <time>2013-04-12T10:16:18.000Z</time>
      </trkpt>
      <trkpt lat="43.23126" lon="0.9125">
        <ele>366.4</ele>
        <time>2013-04-12T10:16:30.000Z</time>
      </trkpt>
      <trkpt lat="43.23121" lon="0.91254">
        <ele>365.9</ele>
        <time>2013-04-12T10:16:46.000Z</time>
      </trkpt>
      <trkpt lat="43.23116" lon="0.91259">
        <ele>366.4</ele>
        <time>2013-04-12T10:16:53.000Z</time>
      </trkpt>
      <trkpt lat="43.23106" lon="0.91269">
        <ele>366.9</ele>
        <time>2013-04-12T10:17:06.000Z</time>
      </trkpt>
      <trkpt lat="43.23095" lon="0.91282">
        <ele>367.4</ele>
        <time>2013-04-12T10:17:19.000Z</time>
      </trkpt>
      <trkpt lat="43.23087" lon="0.91292">
        <ele>368.3</ele>
        <time>2013-04-12T10:17:30.000Z</time>
      </trkpt>
      <trkpt lat="43.2308" lon="0.913">
        <ele>369.3</ele>
        <time>2013-04-12T10:17:39.000Z</time>
      </trkpt>
      <trkpt lat="43.23062" lon="0.91307">
        <ele>372.6</ele>
        <time>2013-04-12T10:17:53.000Z</time>
      </trkpt>
      <trkpt lat="43.2305" lon="0.91308">
        <ele>372.6</ele>
        <time>2013-04-12T10:18:07.000Z</time>
      </trkpt>
      <trkpt lat="43.23043" lon="0.91309">
        <ele>373.1</ele>
        <time>2013-04-12T10:18:14.000Z</time>
      </trkpt>
      <trkpt lat="43.23031" lon="0.9131">
        <ele>374.1</ele>
        <time>2013-04-12T10:18:26.000Z</time>
      </trkpt>
      <trkpt lat="43.23018" lon="0.91307">
        <ele>374.6</ele>
        <time>2013-04-12T10:18:37.000Z</time>
      </trkpt>
      <trkpt lat="43.23003" lon="0.91301">
        <ele>375.1</ele>
        <time>2013-04-12T10:18:48.000Z</time>
      </trkpt>
      <trkpt lat="43.22987" lon="0.91301">
        <ele>374.1</ele>
        <time>2013-04-12T10:19:00.000Z</time>
      </trkpt>
      <trkpt lat="43.2297" lon="0.91303">
        <ele>373.1</ele>
        <time>2013-04-12T10:19:13.000Z</time>
      </trkpt>
      <trkpt lat="43.22955" lon="0.91305">
        <ele>372.6</ele>
        <time>2013-04-12T10:19:25.000Z</time>
      </trkpt>
      <trkpt lat="43.22938" lon="0.91312">
        <ele>371.7</ele>
        <time>2013-04-12T10:19:40.000Z</time>
      </trkpt>
      <trkpt lat="43.2293" lon="0.91315">
        <ele>372.2</ele>
        <time>2013-04-12T10:19:51.000Z</time>
      </trkpt>
      <trkpt lat="43.22923" lon="0.91317">
        <ele>372.2</ele>
        <time>2013-04-12T10:20:09.000Z</time>
      </trkpt>
      <trkpt lat="43.22916" lon="0.91326">
        <ele>371.2</ele>
        <time>2013-04-12T10:20:20.000Z</time>
      </trkpt>
      <trkpt lat="43.22907" lon="0.91336">
        <ele>370.2</ele>
        <time>2013-04-12T10:20:32.000Z</time>
      </trkpt>
      <trkpt lat="43.22905" lon="0.91338">
        <ele>369.8</ele>
        <time>2013-04-12T10:20:34.000Z</time>
      </trkpt>
      <trkpt lat="43.22892" lon="0.91342">
        <ele>368.3</ele>
        <time>2013-04-12T10:20:46.000Z</time>
      </trkpt>
      <trkpt lat="43.22873" lon="0.9135">
        <ele>366.4</ele>
        <time>2013-04-12T10:21:02.000Z</time>
      </trkpt>
      <trkpt lat="43.22857" lon="0.91358">
        <ele>365.4</ele>
        <time>2013-04-12T10:21:16.000Z</time>
      </trkpt>
      <trkpt lat="43.22845" lon="0.91364">
        <ele>365.4</ele>
        <time>2013-04-12T10:21:27.000Z</time>
      </trkpt>
      <trkpt lat="43.22826" lon="0.91371">
        <ele>363.5</ele>
        <time>2013-04-12T10:21:43.000Z</time>
      </trkpt>
      <trkpt lat="43.22811" lon="0.91369">
        <ele>362.6</ele>
        <time>2013-04-12T10:21:57.000Z</time>
      </trkpt>
      <trkpt lat="43.22799" lon="0.91364">
        <ele>360.2</ele>
        <time>2013-04-12T10:22:10.000Z</time>
      </trkpt>
      <trkpt lat="43.22788" lon="0.91359">
        <ele>358.7</ele>
        <time>2013-04-12T10:22:22.000Z</time>
      </trkpt>
      <trkpt lat="43.2278" lon="0.91355">
        <ele>358.2</ele>
        <time>2013-04-12T10:22:40.000Z</time>
      </trkpt>
      <trkpt lat="43.22767" lon="0.91361">
        <ele>356.3</ele>
        <time>2013-04-12T10:22:53.000Z</time>
      </trkpt>
      <trkpt lat="43.22756" lon="0.9137">
        <ele>354.4</ele>
        <time>2013-04-12T10:23:05.000Z</time>
      </trkpt>
      <trkpt lat="43.22741" lon="0.91383">
        <ele>352</ele>
        <time>2013-04-12T10:23:21.000Z</time>
      </trkpt>
      <trkpt lat="43.22731" lon="0.9139">
        <ele>351.5</ele>
        <time>2013-04-12T10:23:32.000Z</time>
      </trkpt>
      <trkpt lat="43.22721" lon="0.91398">
        <ele>351</ele>
        <time>2013-04-12T10:23:43.000Z</time>
      </trkpt>
      <trkpt lat="43.22713" lon="0.914">
        <ele>352</ele>
        <time>2013-04-12T10:23:53.000Z</time>
      </trkpt>
      <trkpt lat="43.22707" lon="0.91407">
        <ele>352.5</ele>
        <time>2013-04-12T10:24:00.000Z</time>
      </trkpt>
      <trkpt lat="43.22694" lon="0.91417">
        <ele>354.9</ele>
        <time>2013-04-12T10:24:14.000Z</time>
      </trkpt>
      <trkpt lat="43.2268" lon="0.91425">
        <ele>356.3</ele>
        <time>2013-04-12T10:24:27.000Z</time>
      </trkpt>
      <trkpt lat="43.22665" lon="0.91435">
        <ele>358.2</ele>
        <time>2013-04-12T10:24:41.000Z</time>
      </trkpt>
      <trkpt lat="43.22656" lon="0.91441">
        <ele>360.6</ele>
        <time>2013-04-12T10:24:54.000Z</time>
      </trkpt>
      <trkpt lat="43.22646" lon="0.91447">
        <ele>362.6</ele>
        <time>2013-04-12T10:25:07.000Z</time>
      </trkpt>
      <trkpt lat="43.22634" lon="0.91452">
        <ele>365</ele>
        <time>2013-04-12T10:25:19.000Z</time>
      </trkpt>
      <trkpt lat="43.22625" lon="0.91461">
        <ele>366.4</ele>
        <time>2013-04-12T10:25:32.000Z</time>
      </trkpt>
      <trkpt lat="43.22616" lon="0.91471">
        <ele>368.3</ele>
        <time>2013-04-12T10:25:45.000Z</time>
      </trkpt>
      <trkpt lat="43.22606" lon="0.91484">
        <ele>370.7</ele>
        <time>2013-04-12T10:25:58.000Z</time>
      </trkpt>
      <trkpt lat="43.226" lon="0.91491">
        <ele>371.2</ele>
        <time>2013-04-12T10:26:09.000Z</time>
      </trkpt>
      <trkpt lat="43.22592" lon="0.91501">
        <ele>372.6</ele>
        <time>2013-04-12T10:26:21.000Z</time>
      </trkpt>
      <trkpt lat="43.22583" lon="0.91516">
        <ele>374.1</ele>
        <time>2013-04-12T10:26:34.000Z</time>
      </trkpt>
      <trkpt lat="43.22574" lon="0.91524">
        <ele>375.1</ele>
        <time>2013-04-12T10:26:43.000Z</time>
      </trkpt>
      <trkpt lat="43.22568" lon="0.91532">
        <ele>376</ele>
        <time>2013-04-12T10:26:53.000Z</time>
      </trkpt>
      <trkpt lat="43.22558" lon="0.91541">
        <ele>377.9</ele>
        <time>2013-04-12T10:27:04.000Z</time>
      </trkpt>
      <trkpt lat="43.22547" lon="0.91553">
        <ele>379.4</ele>
        <time>2013-04-12T10:27:17.000Z</time>
      </trkpt>
      <trkpt lat="43.22542" lon="0.91559">
        <ele>380.8</ele>
        <time>2013-04-12T10:27:27.000Z</time>
      </trkpt>
      <trkpt lat="43.22535" lon="0.91569">
        <ele>381.8</ele>
        <time>2013-04-12T10:27:38.000Z</time>
      </trkpt>
      <trkpt lat="43.22527" lon="0.9158">
        <ele>383.2</ele>
        <time>2013-04-12T10:27:51.000Z</time>
      </trkpt>
      <trkpt lat="43.2252" lon="0.91588">
        <ele>383.7</ele>
        <time>2013-04-12T10:28:02.000Z</time>
      </trkpt>
      <trkpt lat="43.22513" lon="0.91599">
        <ele>384.7</ele>
        <time>2013-04-12T10:28:14.000Z</time>
      </trkpt>
      <trkpt lat="43.22501" lon="0.91614">
        <ele>385.1</ele>
        <time>2013-04-12T10:28:28.000Z</time>
      </trkpt>
      <trkpt lat="43.22488" lon="0.91625">
        <ele>386.6</ele>
        <time>2013-04-12T10:28:42.000Z</time>
      </trkpt>
      <trkpt lat="43.22475" lon="0.91638">
        <ele>386.1</ele>
        <time>2013-04-12T10:28:56.000Z</time>
      </trkpt>
      <trkpt lat="43.22464" lon="0.91648">
        <ele>387.1</ele>
        <time>2013-04-12T10:29:08.000Z</time>
      </trkpt>
      <trkpt lat="43.22453" lon="0.91655">
        <ele>387.5</ele>
        <time>2013-04-12T10:29:20.000Z</time>
      </trkpt>
      <trkpt lat="43.22443" lon="0.91663">
        <ele>388.5</ele>
        <time>2013-04-12T10:29:32.000Z</time>
      </trkpt>
      <trkpt lat="43.22436" lon="0.91668">
        <ele>389</ele>
        <time>2013-04-12T10:29:45.000Z</time>
      </trkpt>
      <trkpt lat="43.22429" lon="0.91674">
        <ele>389.5</ele>
        <time>2013-04-12T10:29:55.000Z</time>
      </trkpt>
      <trkpt lat="43.22418" lon="0.91679">
        <ele>389</ele>
        <time>2013-04-12T10:30:07.000Z</time>
      </trkpt>
      <trkpt lat="43.22417" lon="0.91679">
        <ele>389</ele>
        <time>2013-04-12T10:30:08.000Z</time>
      </trkpt>
      <trkpt lat="43.22408" lon="0.91683">
        <ele>389.5</ele>
        <time>2013-04-12T10:30:17.000Z</time>
      </trkpt>
      <trkpt lat="43.22415" lon="0.91706">
        <ele>392.4</ele>
        <time>2013-04-12T11:41:48.000Z</time>
      </trkpt>
      <trkpt lat="43.22425" lon="0.91721">
        <ele>390.9</ele>
        <time>2013-04-12T11:41:59.000Z</time>
      </trkpt>
      <trkpt lat="43.22434" lon="0.91737">
        <ele>390.4</ele>
        <time>2013-04-12T11:42:11.000Z</time>
      </trkpt>
      <trkpt lat="43.22438" lon="0.91744">
        <ele>390.9</ele>
        <time>2013-04-12T11:42:16.000Z</time>
      </trkpt>
      <trkpt lat="43.22448" lon="0.91758">
        <ele>390</ele>
        <time>2013-04-12T11:42:27.000Z</time>
      </trkpt>
      <trkpt lat="43.2246" lon="0.91781">
        <ele>389.5</ele>
        <time>2013-04-12T11:42:41.000Z</time>
      </trkpt>
      <trkpt lat="43.2247" lon="0.91798">
        <ele>387.5</ele>
        <time>2013-04-12T11:42:52.000Z</time>
      </trkpt>
      <trkpt lat="43.22479" lon="0.91811">
        <ele>387.1</ele>
        <time>2013-04-12T11:43:02.000Z</time>
      </trkpt>
      <trkpt lat="43.22484" lon="0.91818">
        <ele>387.1</ele>
        <time>2013-04-12T11:43:07.000Z</time>
      </trkpt>
      <trkpt lat="43.22494" lon="0.91833">
        <ele>386.1</ele>
        <time>2013-04-12T11:43:19.000Z</time>
      </trkpt>
      <trkpt lat="43.22496" lon="0.91837">
        <ele>386.1</ele>
        <time>2013-04-12T11:43:22.000Z</time>
      </trkpt>
      <trkpt lat="43.22499" lon="0.91845">
        <ele>385.1</ele>
        <time>2013-04-12T11:43:27.000Z</time>
      </trkpt>
      <trkpt lat="43.22508" lon="0.91869">
        <ele>383.7</ele>
        <time>2013-04-12T11:43:41.000Z</time>
      </trkpt>
      <trkpt lat="43.22516" lon="0.91887">
        <ele>381.3</ele>
        <time>2013-04-12T11:43:52.000Z</time>
      </trkpt>
      <trkpt lat="43.22523" lon="0.9191">
        <ele>380.8</ele>
        <time>2013-04-12T11:44:05.000Z</time>
      </trkpt>
      <trkpt lat="43.22527" lon="0.91926">
        <ele>379.4</ele>
        <time>2013-04-12T11:44:14.000Z</time>
      </trkpt>
      <trkpt lat="43.2253" lon="0.91947">
        <ele>378.4</ele>
        <time>2013-04-12T11:44:26.000Z</time>
      </trkpt>
      <trkpt lat="43.22529" lon="0.91971">
        <ele>376.5</ele>
        <time>2013-04-12T11:44:39.000Z</time>
      </trkpt>
      <trkpt lat="43.22526" lon="0.91993">
        <ele>375.1</ele>
        <time>2013-04-12T11:44:51.000Z</time>
      </trkpt>
      <trkpt lat="43.22523" lon="0.92015">
        <ele>374.1</ele>
        <time>2013-04-12T11:45:04.000Z</time>
      </trkpt>
      <trkpt lat="43.22522" lon="0.92038">
        <ele>372.6</ele>
        <time>2013-04-12T11:45:16.000Z</time>
      </trkpt>
      <trkpt lat="43.22523" lon="0.92064">
        <ele>371.2</ele>
        <time>2013-04-12T11:45:30.000Z</time>
      </trkpt>
      <trkpt lat="43.22525" lon="0.92086">
        <ele>369.3</ele>
        <time>2013-04-12T11:45:43.000Z</time>
      </trkpt>
      <trkpt lat="43.22526" lon="0.92106">
        <ele>367.8</ele>
        <time>2013-04-12T11:45:54.000Z</time>
      </trkpt>
      <trkpt lat="43.22527" lon="0.92127">
        <ele>365.9</ele>
        <time>2013-04-12T11:46:06.000Z</time>
      </trkpt>
      <trkpt lat="43.22528" lon="0.92151">
        <ele>364.5</ele>
        <time>2013-04-12T11:46:19.000Z</time>
      </trkpt>
      <trkpt lat="43.22529" lon="0.92173">
        <ele>363.5</ele>
        <time>2013-04-12T11:46:31.000Z</time>
      </trkpt>
      <trkpt lat="43.22531" lon="0.92201">
        <ele>363.5</ele>
        <time>2013-04-12T11:46:46.000Z</time>
      </trkpt>
      <trkpt lat="43.22534" lon="0.92219">
        <ele>363</ele>
        <time>2013-04-12T11:46:57.000Z</time>
      </trkpt>
      <trkpt lat="43.2254" lon="0.9224">
        <ele>363</ele>
        <time>2013-04-12T11:47:11.000Z</time>
      </trkpt>
      <trkpt lat="43.22547" lon="0.92268">
        <ele>362.1</ele>
        <time>2013-04-12T11:47:28.000Z</time>
      </trkpt>
      <trkpt lat="43.22554" lon="0.92294">
        <ele>361.6</ele>
        <time>2013-04-12T11:47:43.000Z</time>
      </trkpt>
      <trkpt lat="43.22558" lon="0.92314">
        <ele>361.1</ele>
        <time>2013-04-12T11:47:55.000Z</time>
      </trkpt>
      <trkpt lat="43.22563" lon="0.92336">
        <ele>359.2</ele>
        <time>2013-04-12T11:48:08.000Z</time>
      </trkpt>
      <trkpt lat="43.22567" lon="0.9236">
        <ele>357.3</ele>
        <time>2013-04-12T11:48:22.000Z</time>
      </trkpt>
      <trkpt lat="43.22572" lon="0.92383">
        <ele>355.8</ele>
        <time>2013-04-12T11:48:36.000Z</time>
      </trkpt>
      <trkpt lat="43.22577" lon="0.9241">
        <ele>354.4</ele>
        <time>2013-04-12T11:48:51.000Z</time>
      </trkpt>
      <trkpt lat="43.22579" lon="0.92432">
        <ele>354.9</ele>
        <time>2013-04-12T11:49:03.000Z</time>
      </trkpt>
      <trkpt lat="43.22578" lon="0.92464">
        <ele>352.9</ele>
        <time>2013-04-12T11:49:21.000Z</time>
      </trkpt>
      <trkpt lat="43.22575" lon="0.9249">
        <ele>351.5</ele>
        <time>2013-04-12T11:49:36.000Z</time>
      </trkpt>
      <trkpt lat="43.2257" lon="0.92519">
        <ele>350.1</ele>
        <time>2013-04-12T11:49:52.000Z</time>
      </trkpt>
      <trkpt lat="43.22568" lon="0.92543">
        <ele>348.6</ele>
        <time>2013-04-12T11:50:05.000Z</time>
      </trkpt>
      <trkpt lat="43.22564" lon="0.9257">
        <ele>347.2</ele>
        <time>2013-04-12T11:50:20.000Z</time>
      </trkpt>
      <trkpt lat="43.22558" lon="0.92594">
        <ele>346.2</ele>
        <time>2013-04-12T11:50:34.000Z</time>
      </trkpt>
      <trkpt lat="43.22553" lon="0.92616">
        <ele>344.8</ele>
        <time>2013-04-12T11:50:47.000Z</time>
      </trkpt>
      <trkpt lat="43.2255" lon="0.92634">
        <ele>343.8</ele>
        <time>2013-04-12T11:50:58.000Z</time>
      </trkpt>
      <trkpt lat="43.22549" lon="0.92651">
        <ele>342.4</ele>
        <time>2013-04-12T11:51:09.000Z</time>
      </trkpt>
      <trkpt lat="43.22548" lon="0.92676">
        <ele>340.4</ele>
        <time>2013-04-12T11:51:23.000Z</time>
      </trkpt>
      <trkpt lat="43.2255" lon="0.92698">
        <ele>338.5</ele>
        <time>2013-04-12T11:51:36.000Z</time>
      </trkpt>
      <trkpt lat="43.22552" lon="0.92709">
        <ele>337.6</ele>
        <time>2013-04-12T11:51:47.000Z</time>
      </trkpt>
      <trkpt lat="43.22558" lon="0.92726">
        <ele>336.6</ele>
        <time>2013-04-12T11:51:59.000Z</time>
      </trkpt>
      <trkpt lat="43.22561" lon="0.92738">
        <ele>335.6</ele>
        <time>2013-04-12T11:52:09.000Z</time>
      </trkpt>
      <trkpt lat="43.22558" lon="0.92747">
        <ele>334.7</ele>
        <time>2013-04-12T11:52:22.000Z</time>
      </trkpt>
      <trkpt lat="43.22557" lon="0.92749">
        <ele>334.7</ele>
        <time>2013-04-12T11:52:52.000Z</time>
      </trkpt>
      <trkpt lat="43.22555" lon="0.92752">
        <ele>334.7</ele>
        <time>2013-04-12T11:53:04.000Z</time>
      </trkpt>
      <trkpt lat="43.22554" lon="0.92751">
        <ele>334.7</ele>
        <time>2013-04-12T11:53:06.000Z</time>
      </trkpt>
      <trkpt lat="43.22551" lon="0.92744">
        <ele>335.2</ele>
        <time>2013-04-12T11:53:19.000Z</time>
      </trkpt>
      <trkpt lat="43.2255" lon="0.92739">
        <ele>335.2</ele>
        <time>2013-04-12T11:53:35.000Z</time>
      </trkpt>
      <trkpt lat="43.22547" lon="0.92736">
        <ele>336.1</ele>
        <time>2013-04-12T11:53:48.000Z</time>
      </trkpt>
      <trkpt lat="43.22544" lon="0.92731">
        <ele>335.6</ele>
        <time>2013-04-12T11:54:01.000Z</time>
      </trkpt>
      <trkpt lat="43.22535" lon="0.92721">
        <ele>335.6</ele>
        <time>2013-04-12T11:54:15.000Z</time>
      </trkpt>
      <trkpt lat="43.22523" lon="0.92706">
        <ele>335.6</ele>
        <time>2013-04-12T11:54:28.000Z</time>
      </trkpt>
      <trkpt lat="43.2251" lon="0.92689">
        <ele>335.2</ele>
        <time>2013-04-12T11:54:43.000Z</time>
      </trkpt>
      <trkpt lat="43.22501" lon="0.92677">
        <ele>334.7</ele>
        <time>2013-04-12T11:54:54.000Z</time>
      </trkpt>
      <trkpt lat="43.22486" lon="0.92661">
        <ele>335.6</ele>
        <time>2013-04-12T11:55:09.000Z</time>
      </trkpt>
      <trkpt lat="43.22473" lon="0.92654">
        <ele>334.7</ele>
        <time>2013-04-12T11:55:22.000Z</time>
      </trkpt>
      <trkpt lat="43.22469" lon="0.92652">
        <ele>334.7</ele>
        <time>2013-04-12T11:55:26.000Z</time>
      </trkpt>
      <trkpt lat="43.22461" lon="0.9265">
        <ele>334.2</ele>
        <time>2013-04-12T11:55:31.000Z</time>
      </trkpt>
      <trkpt lat="43.22443" lon="0.92641">
        <ele>333.2</ele>
        <time>2013-04-12T11:55:46.000Z</time>
      </trkpt>
      <trkpt lat="43.22426" lon="0.92626">
        <ele>332.8</ele>
        <time>2013-04-12T11:56:02.000Z</time>
      </trkpt>
      <trkpt lat="43.22413" lon="0.92624">
        <ele>332.3</ele>
        <time>2013-04-12T11:56:15.000Z</time>
      </trkpt>
      <trkpt lat="43.22412" lon="0.9263">
        <ele>331.8</ele>
        <time>2013-04-12T11:56:23.000Z</time>
      </trkpt>
      <trkpt lat="43.22409" lon="0.92639">
        <ele>330.8</ele>
        <time>2013-04-12T11:56:33.000Z</time>
      </trkpt>
      <trkpt lat="43.22402" lon="0.92653">
        <ele>331.3</ele>
        <time>2013-04-12T11:56:46.000Z</time>
      </trkpt>
      <trkpt lat="43.22392" lon="0.92664">
        <ele>330.8</ele>
        <time>2013-04-12T11:56:58.000Z</time>
      </trkpt>
      <trkpt lat="43.2238" lon="0.92674">
        <ele>330.4</ele>
        <time>2013-04-12T11:57:10.000Z</time>
      </trkpt>
      <trkpt lat="43.22372" lon="0.92675">
        <ele>331.3</ele>
        <time>2013-04-12T11:57:19.000Z</time>
      </trkpt>
      <trkpt lat="43.2236" lon="0.9267">
        <ele>331.8</ele>
        <time>2013-04-12T11:57:30.000Z</time>
      </trkpt>
      <trkpt lat="43.22348" lon="0.92666">
        <ele>332.3</ele>
        <time>2013-04-12T11:57:41.000Z</time>
      </trkpt>
      <trkpt lat="43.22347" lon="0.92666">
        <ele>331.8</ele>
        <time>2013-04-12T11:57:42.000Z</time>
      </trkpt>
      <trkpt lat="43.22338" lon="0.9267">
        <ele>333.2</ele>
        <time>2013-04-12T11:57:54.000Z</time>
      </trkpt>
      <trkpt lat="43.22333" lon="0.9267">
        <ele>334.7</ele>
        <time>2013-04-12T11:58:04.000Z</time>
      </trkpt>
      <trkpt lat="43.22328" lon="0.92676">
        <ele>336.6</ele>
        <time>2013-04-12T11:58:15.000Z</time>
      </trkpt>
      <trkpt lat="43.22319" lon="0.92683">
        <ele>338.5</ele>
        <time>2013-04-12T11:58:25.000Z</time>
      </trkpt>
      <trkpt lat="43.22306" lon="0.92697">
        <ele>341.4</ele>
        <time>2013-04-12T11:58:43.000Z</time>
      </trkpt>
      <trkpt lat="43.22299" lon="0.92706">
        <ele>342.8</ele>
        <time>2013-04-12T11:58:53.000Z</time>
      </trkpt>
      <trkpt lat="43.22288" lon="0.92716">
        <ele>344.8</ele>
        <time>2013-04-12T11:59:08.000Z</time>
      </trkpt>
      <trkpt lat="43.22285" lon="0.92718">
        <ele>345.7</ele>
        <time>2013-04-12T11:59:14.000Z</time>
      </trkpt>
      <trkpt lat="43.22277" lon="0.92727">
        <ele>348.1</ele>
        <time>2013-04-12T11:59:27.000Z</time>
      </trkpt>
      <trkpt lat="43.22266" lon="0.92738">
        <ele>350.1</ele>
        <time>2013-04-12T11:59:43.000Z</time>
      </trkpt>
      <trkpt lat="43.22256" lon="0.92747">
        <ele>351.5</ele>
        <time>2013-04-12T11:59:58.000Z</time>
      </trkpt>
      <trkpt lat="43.22246" lon="0.92756">
        <ele>354.4</ele>
        <time>2013-04-12T12:00:15.000Z</time>
      </trkpt>
      <trkpt lat="43.22236" lon="0.92767">
        <ele>356.3</ele>
        <time>2013-04-12T12:00:30.000Z</time>
      </trkpt>
      <trkpt lat="43.22225" lon="0.92778">
        <ele>358.7</ele>
        <time>2013-04-12T12:00:45.000Z</time>
      </trkpt>
      <trkpt lat="43.22216" lon="0.92789">
        <ele>361.1</ele>
        <time>2013-04-12T12:01:01.000Z</time>
      </trkpt>
      <trkpt lat="43.22209" lon="0.92803">
        <ele>362.6</ele>
        <time>2013-04-12T12:01:15.000Z</time>
      </trkpt>
      <trkpt lat="43.22205" lon="0.92815">
        <ele>363</ele>
        <time>2013-04-12T12:01:25.000Z</time>
      </trkpt>
      <trkpt lat="43.22198" lon="0.92829">
        <ele>364</ele>
        <time>2013-04-12T12:01:39.000Z</time>
      </trkpt>
      <trkpt lat="43.2219" lon="0.92847">
        <ele>365.4</ele>
        <time>2013-04-12T12:01:55.000Z</time>
      </trkpt>
      <trkpt lat="43.22184" lon="0.9286">
        <ele>366.4</ele>
        <time>2013-04-12T12:02:07.000Z</time>
      </trkpt>
      <trkpt lat="43.22176" lon="0.92877">
        <ele>367.8</ele>
        <time>2013-04-12T12:02:22.000Z</time>
      </trkpt>
      <trkpt lat="43.22174" lon="0.92883">
        <ele>368.8</ele>
        <time>2013-04-12T12:02:27.000Z</time>
      </trkpt>
      <trkpt lat="43.22166" lon="0.92901">
        <ele>370.2</ele>
        <time>2013-04-12T12:02:43.000Z</time>
      </trkpt>
      <trkpt lat="43.22164" lon="0.92905">
        <ele>370.7</ele>
        <time>2013-04-12T12:02:47.000Z</time>
      </trkpt>
      <trkpt lat="43.22158" lon="0.92916">
        <ele>372.2</ele>
        <time>2013-04-12T12:02:57.000Z</time>
      </trkpt>
      <trkpt lat="43.22151" lon="0.92935">
        <ele>374.1</ele>
        <time>2013-04-12T12:03:14.000Z</time>
      </trkpt>
      <trkpt lat="43.22143" lon="0.92954">
        <ele>376</ele>
        <time>2013-04-12T12:03:30.000Z</time>
      </trkpt>
      <trkpt lat="43.22137" lon="0.92969">
        <ele>377</ele>
        <time>2013-04-12T12:03:43.000Z</time>
      </trkpt>
      <trkpt lat="43.22129" lon="0.92983">
        <ele>378.9</ele>
        <time>2013-04-12T12:03:57.000Z</time>
      </trkpt>
      <trkpt lat="43.22132" lon="0.92992">
        <ele>377.9</ele>
        <time>2013-04-12T12:04:06.000Z</time>
      </trkpt>
      <trkpt lat="43.22144" lon="0.93002">
        <ele>376.5</ele>
        <time>2013-04-12T12:04:19.000Z</time>
      </trkpt>
      <trkpt lat="43.2216" lon="0.93013">
        <ele>374.6</ele>
        <time>2013-04-12T12:04:35.000Z</time>
      </trkpt>
      <trkpt lat="43.22175" lon="0.93022">
        <ele>373.6</ele>
        <time>2013-04-12T12:04:50.000Z</time>
      </trkpt>
      <trkpt lat="43.22189" lon="0.93026">
        <ele>372.2</ele>
        <time>2013-04-12T12:05:04.000Z</time>
      </trkpt>
      <trkpt lat="43.22195" lon="0.93025">
        <ele>372.6</ele>
        <time>2013-04-12T12:05:13.000Z</time>
      </trkpt>
      <trkpt lat="43.22205" lon="0.93025">
        <ele>372.6</ele>
        <time>2013-04-12T12:05:23.000Z</time>
      </trkpt>
      <trkpt lat="43.22213" lon="0.93024">
        <ele>371.7</ele>
        <time>2013-04-12T12:05:32.000Z</time>
      </trkpt>
      <trkpt lat="43.22221" lon="0.93021">
        <ele>372.2</ele>
        <time>2013-04-12T12:07:10.000Z</time>
      </trkpt>
      <trkpt lat="43.22229" lon="0.93022">
        <ele>371.7</ele>
        <time>2013-04-12T12:07:19.000Z</time>
      </trkpt>
      <trkpt lat="43.22244" lon="0.93021">
        <ele>372.2</ele>
        <time>2013-04-12T12:07:30.000Z</time>
      </trkpt>
      <trkpt lat="43.22253" lon="0.9302">
        <ele>371.7</ele>
        <time>2013-04-12T12:07:41.000Z</time>
      </trkpt>
      <trkpt lat="43.22261" lon="0.93017">
        <ele>371.2</ele>
        <time>2013-04-12T12:07:51.000Z</time>
      </trkpt>
      <trkpt lat="43.22268" lon="0.93014">
        <ele>371.2</ele>
        <time>2013-04-12T12:08:02.000Z</time>
      </trkpt>
      <trkpt lat="43.22268" lon="0.92997">
        <ele>371.7</ele>
        <time>2013-04-12T12:08:12.000Z</time>
      </trkpt>
      <trkpt lat="43.22269" lon="0.92992">
        <ele>371.2</ele>
        <time>2013-04-12T12:08:15.000Z</time>
      </trkpt>
      <trkpt lat="43.22267" lon="0.92975">
        <ele>371.2</ele>
        <time>2013-04-12T12:08:29.000Z</time>
      </trkpt>
      <trkpt lat="43.22265" lon="0.92968">
        <ele>371.2</ele>
        <time>2013-04-12T12:08:42.000Z</time>
      </trkpt>
      <trkpt lat="43.22264" lon="0.92965">
        <ele>371.7</ele>
        <time>2013-04-12T12:08:49.000Z</time>
      </trkpt>
      <trkpt lat="43.22263" lon="0.92972">
        <ele>371.7</ele>
        <time>2013-04-12T12:08:57.000Z</time>
      </trkpt>
      <trkpt lat="43.22266" lon="0.92977">
        <ele>371.2</ele>
        <time>2013-04-12T12:09:01.000Z</time>
      </trkpt>
      <trkpt lat="43.22268" lon="0.92984">
        <ele>371.2</ele>
        <time>2013-04-12T12:09:07.000Z</time>
      </trkpt>
      <trkpt lat="43.2227" lon="0.92987">
        <ele>371.7</ele>
        <time>2013-04-12T12:09:48.000Z</time>
      </trkpt>
      <trkpt lat="43.2227" lon="0.92987">
        <ele>371.7</ele>
        <time>2013-04-12T12:10:06.000Z</time>
      </trkpt>
      <trkpt lat="43.22269" lon="0.92987">
        <ele>372.2</ele>
        <time>2013-04-12T12:10:22.000Z</time>
      </trkpt>
      <trkpt lat="43.22275" lon="0.92988">
        <ele>371.7</ele>
        <time>2013-04-12T12:10:43.000Z</time>
      </trkpt>
      <trkpt lat="43.22275" lon="0.92988">
        <ele>371.7</ele>
        <time>2013-04-12T12:10:55.000Z</time>
      </trkpt>
      <trkpt lat="43.2228" lon="0.92991">
        <ele>371.2</ele>
        <time>2013-04-12T12:11:06.000Z</time>
      </trkpt>
      <trkpt lat="43.22283" lon="0.92995">
        <ele>370.7</ele>
        <time>2013-04-12T12:11:11.000Z</time>
      </trkpt>
      <trkpt lat="43.22279" lon="0.93009">
        <ele>371.2</ele>
        <time>2013-04-12T12:11:23.000Z</time>
      </trkpt>
      <trkpt lat="43.22268" lon="0.93018">
        <ele>371.7</ele>
        <time>2013-04-12T12:11:33.000Z</time>
      </trkpt>
      <trkpt lat="43.22263" lon="0.93018">
        <ele>372.2</ele>
        <time>2013-04-12T12:11:38.000Z</time>
      </trkpt>
      <trkpt lat="43.22255" lon="0.93021">
        <ele>372.2</ele>
        <time>2013-04-12T12:11:46.000Z</time>
      </trkpt>
      <trkpt lat="43.22246" lon="0.93022">
        <ele>372.2</ele>
        <time>2013-04-12T12:11:54.000Z</time>
      </trkpt>
      <trkpt lat="43.22234" lon="0.93025">
        <ele>372.2</ele>
        <time>2013-04-12T12:12:04.000Z</time>
      </trkpt>
      <trkpt lat="43.22222" lon="0.93024">
        <ele>372.6</ele>
        <time>2013-04-12T12:12:16.000Z</time>
      </trkpt>
      <trkpt lat="43.2222" lon="0.93024">
        <ele>372.6</ele>
        <time>2013-04-12T12:12:18.000Z</time>
      </trkpt>
      <trkpt lat="43.22202" lon="0.93024">
        <ele>373.1</ele>
        <time>2013-04-12T12:12:34.000Z</time>
      </trkpt>
      <trkpt lat="43.22198" lon="0.93024">
        <ele>372.6</ele>
        <time>2013-04-12T12:12:37.000Z</time>
      </trkpt>
      <trkpt lat="43.22193" lon="0.93027">
        <ele>372.6</ele>
        <time>2013-04-12T12:12:42.000Z</time>
      </trkpt>
      <trkpt lat="43.22189" lon="0.9303">
        <ele>373.1</ele>
        <time>2013-04-12T12:12:45.000Z</time>
      </trkpt>
      <trkpt lat="43.22182" lon="0.93045">
        <ele>374.1</ele>
        <time>2013-04-12T12:12:56.000Z</time>
      </trkpt>
      <trkpt lat="43.22178" lon="0.93051">
        <ele>374.6</ele>
        <time>2013-04-12T12:13:01.000Z</time>
      </trkpt>
      <trkpt lat="43.22166" lon="0.93069">
        <ele>376</ele>
        <time>2013-04-12T12:13:15.000Z</time>
      </trkpt>
      <trkpt lat="43.22153" lon="0.93089">
        <ele>378.4</ele>
        <time>2013-04-12T12:13:32.000Z</time>
      </trkpt>
      <trkpt lat="43.22143" lon="0.93103">
        <ele>378.4</ele>
        <time>2013-04-12T12:13:46.000Z</time>
      </trkpt>
      <trkpt lat="43.22134" lon="0.93119">
        <ele>379.4</ele>
        <time>2013-04-12T12:13:59.000Z</time>
      </trkpt>
      <trkpt lat="43.22126" lon="0.9314">
        <ele>380.3</ele>
        <time>2013-04-12T12:14:14.000Z</time>
      </trkpt>
      <trkpt lat="43.22124" lon="0.93146">
        <ele>380.3</ele>
        <time>2013-04-12T12:14:24.000Z</time>
      </trkpt>
      <trkpt lat="43.22121" lon="0.93168">
        <ele>379.9</ele>
        <time>2013-04-12T12:14:38.000Z</time>
      </trkpt>
      <trkpt lat="43.22117" lon="0.93191">
        <ele>379.4</ele>
        <time>2013-04-12T12:14:52.000Z</time>
      </trkpt>
      <trkpt lat="43.22115" lon="0.93217">
        <ele>378.9</ele>
        <time>2013-04-12T12:15:08.000Z</time>
      </trkpt>
      <trkpt lat="43.22113" lon="0.9324">
        <ele>377.9</ele>
        <time>2013-04-12T12:15:22.000Z</time>
      </trkpt>
      <trkpt lat="43.22111" lon="0.93264">
        <ele>376.5</ele>
        <time>2013-04-12T12:15:37.000Z</time>
      </trkpt>
      <trkpt lat="43.22108" lon="0.93289">
        <ele>375.1</ele>
        <time>2013-04-12T12:15:51.000Z</time>
      </trkpt>
      <trkpt lat="43.22106" lon="0.93314">
        <ele>374.1</ele>
        <time>2013-04-12T12:16:06.000Z</time>
      </trkpt>
      <trkpt lat="43.22104" lon="0.93336">
        <ele>373.1</ele>
        <time>2013-04-12T12:16:19.000Z</time>
      </trkpt>
      <trkpt lat="43.22101" lon="0.93365">
        <ele>371.7</ele>
        <time>2013-04-12T12:16:35.000Z</time>
      </trkpt>
      <trkpt lat="43.22099" lon="0.93393">
        <ele>369.8</ele>
        <time>2013-04-12T12:16:50.000Z</time>
      </trkpt>
      <trkpt lat="43.22098" lon="0.93424">
        <ele>368.8</ele>
        <time>2013-04-12T12:17:06.000Z</time>
      </trkpt>
      <trkpt lat="43.22097" lon="0.93449">
        <ele>367.8</ele>
        <time>2013-04-12T12:17:20.000Z</time>
      </trkpt>
      <trkpt lat="43.22094" lon="0.93471">
        <ele>366.4</ele>
        <time>2013-04-12T12:17:34.000Z</time>
      </trkpt>
      <trkpt lat="43.22093" lon="0.93478">
        <ele>365.9</ele>
        <time>2013-04-12T12:17:38.000Z</time>
      </trkpt>
      <trkpt lat="43.22081" lon="0.93483">
        <ele>365</ele>
        <time>2013-04-12T12:17:50.000Z</time>
      </trkpt>
      <trkpt lat="43.22071" lon="0.93484">
        <ele>364</ele>
        <time>2013-04-12T12:18:00.000Z</time>
      </trkpt>
      <trkpt lat="43.22063" lon="0.93484">
        <ele>363.5</ele>
        <time>2013-04-12T12:18:05.000Z</time>
      </trkpt>
      <trkpt lat="43.22045" lon="0.93481">
        <ele>362.6</ele>
        <time>2013-04-12T12:18:19.000Z</time>
      </trkpt>
      <trkpt lat="43.22029" lon="0.93474">
        <ele>361.1</ele>
        <time>2013-04-12T12:18:32.000Z</time>
      </trkpt>
      <trkpt lat="43.22012" lon="0.93467">
        <ele>359.7</ele>
        <time>2013-04-12T12:18:47.000Z</time>
      </trkpt>
      <trkpt lat="43.21994" lon="0.93462">
        <ele>357.3</ele>
        <time>2013-04-12T12:19:01.000Z</time>
      </trkpt>
      <trkpt lat="43.21978" lon="0.93462">
        <ele>354.9</ele>
        <time>2013-04-12T12:19:15.000Z</time>
      </trkpt>
      <trkpt lat="43.2196" lon="0.93469">
        <ele>352</ele>
        <time>2013-04-12T12:19:30.000Z</time>
      </trkpt>
      <trkpt lat="43.21941" lon="0.93483">
        <ele>350.1</ele>
        <time>2013-04-12T12:19:48.000Z</time>
      </trkpt>
      <trkpt lat="43.21925" lon="0.93495">
        <ele>347.7</ele>
        <time>2013-04-12T12:20:03.000Z</time>
      </trkpt>
      <trkpt lat="43.21908" lon="0.93509">
        <ele>345.3</ele>
        <time>2013-04-12T12:20:19.000Z</time>
      </trkpt>
      <trkpt lat="43.21894" lon="0.9353">
        <ele>342.8</ele>
        <time>2013-04-12T12:20:36.000Z</time>
      </trkpt>
      <trkpt lat="43.21882" lon="0.9355">
        <ele>341.4</ele>
        <time>2013-04-12T12:20:51.000Z</time>
      </trkpt>
      <trkpt lat="43.2187" lon="0.93573">
        <ele>340</ele>
        <time>2013-04-12T12:21:07.000Z</time>
      </trkpt>
      <trkpt lat="43.21859" lon="0.93593">
        <ele>340.4</ele>
        <time>2013-04-12T12:21:23.000Z</time>
      </trkpt>
      <trkpt lat="43.21843" lon="0.93609">
        <ele>342.4</ele>
        <time>2013-04-12T12:21:39.000Z</time>
      </trkpt>
      <trkpt lat="43.21826" lon="0.93617">
        <ele>343.3</ele>
        <time>2013-04-12T12:21:54.000Z</time>
      </trkpt>
      <trkpt lat="43.21814" lon="0.93623">
        <ele>343.8</ele>
        <time>2013-04-12T12:22:06.000Z</time>
      </trkpt>
      <trkpt lat="43.21796" lon="0.93625">
        <ele>344.3</ele>
        <time>2013-04-12T12:22:19.000Z</time>
      </trkpt>
      <trkpt lat="43.21776" lon="0.9363">
        <ele>345.7</ele>
        <time>2013-04-12T12:22:35.000Z</time>
      </trkpt>
      <trkpt lat="43.21756" lon="0.93636">
        <ele>346.2</ele>
        <time>2013-04-12T12:22:52.000Z</time>
      </trkpt>
      <trkpt lat="43.21736" lon="0.93638">
        <ele>345.7</ele>
        <time>2013-04-12T12:23:08.000Z</time>
      </trkpt>
      <trkpt lat="43.21718" lon="0.93643">
        <ele>344.8</ele>
        <time>2013-04-12T12:23:23.000Z</time>
      </trkpt>
      <trkpt lat="43.21699" lon="0.93646">
        <ele>344.3</ele>
        <time>2013-04-12T12:23:38.000Z</time>
      </trkpt>
      <trkpt lat="43.21685" lon="0.93659">
        <ele>344.3</ele>
        <time>2013-04-12T12:23:51.000Z</time>
      </trkpt>
      <trkpt lat="43.2168" lon="0.93679">
        <ele>344.3</ele>
        <time>2013-04-12T12:24:03.000Z</time>
      </trkpt>
      <trkpt lat="43.21683" lon="0.93696">
        <ele>345.3</ele>
        <time>2013-04-12T12:24:14.000Z</time>
      </trkpt>
      <trkpt lat="43.21688" lon="0.9371">
        <ele>346.2</ele>
        <time>2013-04-12T12:24:23.000Z</time>
      </trkpt>
      <trkpt lat="43.21698" lon="0.93729">
        <ele>347.7</ele>
        <time>2013-04-12T12:24:38.000Z</time>
      </trkpt>
      <trkpt lat="43.21702" lon="0.93733">
        <ele>348.6</ele>
        <time>2013-04-12T12:24:43.000Z</time>
      </trkpt>
      <trkpt lat="43.21711" lon="0.93746">
        <ele>348.6</ele>
        <time>2013-04-12T12:24:53.000Z</time>
      </trkpt>
      <trkpt lat="43.2171" lon="0.93758">
        <ele>349.6</ele>
        <time>2013-04-12T12:25:01.000Z</time>
      </trkpt>
      <trkpt lat="43.21698" lon="0.93763">
        <ele>351</ele>
        <time>2013-04-12T12:25:13.000Z</time>
      </trkpt>
      <trkpt lat="43.2168" lon="0.93762">
        <ele>352.5</ele>
        <time>2013-04-12T12:25:29.000Z</time>
      </trkpt>
      <trkpt lat="43.21668" lon="0.93762">
        <ele>353.9</ele>
        <time>2013-04-12T12:25:41.000Z</time>
      </trkpt>
      <trkpt lat="43.21665" lon="0.93762">
        <ele>353.9</ele>
        <time>2013-04-12T12:25:43.000Z</time>
      </trkpt>
      <trkpt lat="43.21647" lon="0.9376">
        <ele>354.9</ele>
        <time>2013-04-12T12:26:00.000Z</time>
      </trkpt>
      <trkpt lat="43.21628" lon="0.93757">
        <ele>356.8</ele>
        <time>2013-04-12T12:26:17.000Z</time>
      </trkpt>
      <trkpt lat="43.21609" lon="0.93751">
        <ele>357.7</ele>
        <time>2013-04-12T12:26:33.000Z</time>
      </trkpt>
      <trkpt lat="43.2159" lon="0.93743">
        <ele>358.7</ele>
        <time>2013-04-12T12:26:49.000Z</time>
      </trkpt>
      <trkpt lat="43.21574" lon="0.93734">
        <ele>360.2</ele>
        <time>2013-04-12T12:27:04.000Z</time>
      </trkpt>
      <trkpt lat="43.2156" lon="0.93727">
        <ele>361.1</ele>
        <time>2013-04-12T12:27:17.000Z</time>
      </trkpt>
      <trkpt lat="43.21539" lon="0.93715">
        <ele>362.6</ele>
        <time>2013-04-12T12:27:37.000Z</time>
      </trkpt>
      <trkpt lat="43.21528" lon="0.93712">
        <ele>363</ele>
        <time>2013-04-12T12:27:47.000Z</time>
      </trkpt>
      <trkpt lat="43.21515" lon="0.93708">
        <ele>364</ele>
        <time>2013-04-12T12:28:00.000Z</time>
      </trkpt>
      <trkpt lat="43.21509" lon="0.93707">
        <ele>364.5</ele>
        <time>2013-04-12T12:28:14.000Z</time>
      </trkpt>
      <trkpt lat="43.21507" lon="0.93706">
        <ele>364.5</ele>
        <time>2013-04-12T12:28:26.000Z</time>
      </trkpt>
      <trkpt lat="43.21504" lon="0.93705">
        <ele>364.5</ele>
        <time>2013-04-12T12:28:38.000Z</time>
      </trkpt>
      <trkpt lat="43.21509" lon="0.93718">
        <ele>365</ele>
        <time>2013-04-12T12:29:22.000Z</time>
      </trkpt>
      <trkpt lat="43.21503" lon="0.93709">
        <ele>365</ele>
        <time>2013-04-12T12:29:39.000Z</time>
      </trkpt>
      <trkpt lat="43.21505" lon="0.93702">
        <ele>364.5</ele>
        <time>2013-04-12T12:29:57.000Z</time>
      </trkpt>
      <trkpt lat="43.21506" lon="0.93708">
        <ele>365</ele>
        <time>2013-04-12T12:30:15.000Z</time>
      </trkpt>
      <trkpt lat="43.21509" lon="0.93701">
        <ele>364</ele>
        <time>2013-04-12T12:31:00.000Z</time>
      </trkpt>
      <trkpt lat="43.21504" lon="0.93696">
        <ele>365</ele>
        <time>2013-04-12T12:31:33.000Z</time>
      </trkpt>
      <trkpt lat="43.21507" lon="0.93711">
        <ele>363.5</ele>
        <time>2013-04-12T12:35:50.000Z</time>
      </trkpt>
      <trkpt lat="43.21505" lon="0.93713">
        <ele>364</ele>
        <time>2013-04-12T12:35:52.000Z</time>
      </trkpt>
      <trkpt lat="43.21493" lon="0.93718">
        <ele>365.4</ele>
        <time>2013-04-12T12:36:05.000Z</time>
      </trkpt>
      <trkpt lat="43.21483" lon="0.93725">
        <ele>365.9</ele>
        <time>2013-04-12T12:36:16.000Z</time>
      </trkpt>
      <trkpt lat="43.2147" lon="0.93734">
        <ele>367.4</ele>
        <time>2013-04-12T12:36:29.000Z</time>
      </trkpt>
      <trkpt lat="43.2146" lon="0.93741">
        <ele>368.8</ele>
        <time>2013-04-12T12:36:40.000Z</time>
      </trkpt>
      <trkpt lat="43.21445" lon="0.93749">
        <ele>369.8</ele>
        <time>2013-04-12T12:36:54.000Z</time>
      </trkpt>
      <trkpt lat="43.21428" lon="0.93754">
        <ele>370.7</ele>
        <time>2013-04-12T12:37:09.000Z</time>
      </trkpt>
      <trkpt lat="43.21419" lon="0.93756">
        <ele>371.7</ele>
        <time>2013-04-12T12:37:18.000Z</time>
      </trkpt>
      <trkpt lat="43.21402" lon="0.93756">
        <ele>371.2</ele>
        <time>2013-04-12T12:37:31.000Z</time>
      </trkpt>
      <trkpt lat="43.2139" lon="0.93754">
        <ele>371.2</ele>
        <time>2013-04-12T12:37:41.000Z</time>
      </trkpt>
      <trkpt lat="43.21385" lon="0.93751">
        <ele>371.2</ele>
        <time>2013-04-12T12:37:51.000Z</time>
      </trkpt>
      <trkpt lat="43.21382" lon="0.93744">
        <ele>372.6</ele>
        <time>2013-04-12T12:38:01.000Z</time>
      </trkpt>
      <trkpt lat="43.2138" lon="0.93734">
        <ele>374.1</ele>
        <time>2013-04-12T12:38:12.000Z</time>
      </trkpt>
      <trkpt lat="43.21379" lon="0.93721">
        <ele>375.1</ele>
        <time>2013-04-12T12:38:23.000Z</time>
      </trkpt>
      <trkpt lat="43.21382" lon="0.93708">
        <ele>376</ele>
        <time>2013-04-12T12:38:35.000Z</time>
      </trkpt>
      <trkpt lat="43.2138" lon="0.93695">
        <ele>376.5</ele>
        <time>2013-04-12T12:38:45.000Z</time>
      </trkpt>
      <trkpt lat="43.2138" lon="0.93682">
        <ele>377.5</ele>
        <time>2013-04-12T12:38:53.000Z</time>
      </trkpt>
      <trkpt lat="43.21379" lon="0.93668">
        <ele>378.4</ele>
        <time>2013-04-12T12:39:04.000Z</time>
      </trkpt>
      <trkpt lat="43.21376" lon="0.93652">
        <ele>378.9</ele>
        <time>2013-04-12T12:39:15.000Z</time>
      </trkpt>
      <trkpt lat="43.21377" lon="0.93639">
        <ele>379.9</ele>
        <time>2013-04-12T12:39:25.000Z</time>
      </trkpt>
      <trkpt lat="43.21377" lon="0.93628">
        <ele>379.9</ele>
        <time>2013-04-12T12:39:34.000Z</time>
      </trkpt>
      <trkpt lat="43.21376" lon="0.93618">
        <ele>380.3</ele>
        <time>2013-04-12T12:39:44.000Z</time>
      </trkpt>
      <trkpt lat="43.21367" lon="0.93606">
        <ele>381.3</ele>
        <time>2013-04-12T12:39:55.000Z</time>
      </trkpt>
      <trkpt lat="43.21358" lon="0.93598">
        <ele>383.2</ele>
        <time>2013-04-12T12:40:05.000Z</time>
      </trkpt>
      <trkpt lat="43.21349" lon="0.93591">
        <ele>384.2</ele>
        <time>2013-04-12T12:40:15.000Z</time>
      </trkpt>
      <trkpt lat="43.21341" lon="0.93586">
        <ele>385.1</ele>
        <time>2013-04-12T12:40:24.000Z</time>
      </trkpt>
      <trkpt lat="43.21329" lon="0.93583">
        <ele>386.1</ele>
        <time>2013-04-12T12:40:38.000Z</time>
      </trkpt>
      <trkpt lat="43.21315" lon="0.9358">
        <ele>387.1</ele>
        <time>2013-04-12T12:40:51.000Z</time>
      </trkpt>
      <trkpt lat="43.21301" lon="0.93584">
        <ele>388.5</ele>
        <time>2013-04-12T12:41:04.000Z</time>
      </trkpt>
      <trkpt lat="43.2129" lon="0.93584">
        <ele>389.5</ele>
        <time>2013-04-12T12:41:17.000Z</time>
      </trkpt>
      <trkpt lat="43.21278" lon="0.93582">
        <ele>390</ele>
        <time>2013-04-12T12:41:28.000Z</time>
      </trkpt>
      <trkpt lat="43.21264" lon="0.93579">
        <ele>390.4</ele>
        <time>2013-04-12T12:41:41.000Z</time>
      </trkpt>
      <trkpt lat="43.21256" lon="0.93574">
        <ele>390</ele>
        <time>2013-04-12T12:41:51.000Z</time>
      </trkpt>
      <trkpt lat="43.21245" lon="0.93569">
        <ele>390</ele>
        <time>2013-04-12T12:42:01.000Z</time>
      </trkpt>
      <trkpt lat="43.21232" lon="0.93562">
        <ele>390</ele>
        <time>2013-04-12T12:42:12.000Z</time>
      </trkpt>
      <trkpt lat="43.21224" lon="0.93557">
        <ele>390.9</ele>
        <time>2013-04-12T12:42:23.000Z</time>
      </trkpt>
      <trkpt lat="43.21213" lon="0.93547">
        <ele>390.4</ele>
        <time>2013-04-12T12:42:36.000Z</time>
      </trkpt>
      <trkpt lat="43.21203" lon="0.93539">
        <ele>390.9</ele>
        <time>2013-04-12T12:42:48.000Z</time>
      </trkpt>
      <trkpt lat="43.21195" lon="0.93531">
        <ele>390.9</ele>
        <time>2013-04-12T12:42:58.000Z</time>
      </trkpt>
      <trkpt lat="43.21188" lon="0.93522">
        <ele>391.4</ele>
        <time>2013-04-12T12:43:08.000Z</time>
      </trkpt>
      <trkpt lat="43.2118" lon="0.9351">
        <ele>390.9</ele>
        <time>2013-04-12T12:43:18.000Z</time>
      </trkpt>
      <trkpt lat="43.21172" lon="0.93497">
        <ele>391.4</ele>
        <time>2013-04-12T12:43:29.000Z</time>
      </trkpt>
      <trkpt lat="43.21169" lon="0.93491">
        <ele>391.4</ele>
        <time>2013-04-12T12:43:34.000Z</time>
      </trkpt>
      <trkpt lat="43.2116" lon="0.93476">
        <ele>391.9</ele>
        <time>2013-04-12T12:43:46.000Z</time>
      </trkpt>
      <trkpt lat="43.2115" lon="0.93463">
        <ele>391.9</ele>
        <time>2013-04-12T12:43:58.000Z</time>
      </trkpt>
      <trkpt lat="43.21142" lon="0.93455">
        <ele>391.9</ele>
        <time>2013-04-12T12:44:08.000Z</time>
      </trkpt>
      <trkpt lat="43.2113" lon="0.93442">
        <ele>390.9</ele>
        <time>2013-04-12T12:44:19.000Z</time>
      </trkpt>
      <trkpt lat="43.21119" lon="0.93435">
        <ele>390.4</ele>
        <time>2013-04-12T12:44:29.000Z</time>
      </trkpt>
      <trkpt lat="43.21107" lon="0.93425">
        <ele>389.5</ele>
        <time>2013-04-12T12:44:40.000Z</time>
      </trkpt>
      <trkpt lat="43.21101" lon="0.9342">
        <ele>389</ele>
        <time>2013-04-12T12:44:49.000Z</time>
      </trkpt>
      <trkpt lat="43.21094" lon="0.93415">
        <ele>389</ele>
        <time>2013-04-12T12:44:58.000Z</time>
      </trkpt>
      <trkpt lat="43.21082" lon="0.93409">
        <ele>389.5</ele>
        <time>2013-04-12T12:45:08.000Z</time>
      </trkpt>
      <trkpt lat="43.21073" lon="0.93405">
        <ele>390</ele>
        <time>2013-04-12T12:45:17.000Z</time>
      </trkpt>
      <trkpt lat="43.21059" lon="0.934">
        <ele>391.9</ele>
        <time>2013-04-12T12:45:32.000Z</time>
      </trkpt>
      <trkpt lat="43.21047" lon="0.93395">
        <ele>392.4</ele>
        <time>2013-04-12T12:45:46.000Z</time>
      </trkpt>
      <trkpt lat="43.21042" lon="0.93391">
        <ele>392.8</ele>
        <time>2013-04-12T12:45:53.000Z</time>
      </trkpt>
      <trkpt lat="43.2103" lon="0.93381">
        <ele>393.3</ele>
        <time>2013-04-12T12:46:06.000Z</time>
      </trkpt>
      <trkpt lat="43.2102" lon="0.93371">
        <ele>393.8</ele>
        <time>2013-04-12T12:46:19.000Z</time>
      </trkpt>
      <trkpt lat="43.21012" lon="0.93361">
        <ele>393.3</ele>
        <time>2013-04-12T12:46:30.000Z</time>
      </trkpt>
      <trkpt lat="43.21004" lon="0.93345">
        <ele>393.3</ele>
        <time>2013-04-12T12:46:43.000Z</time>
      </trkpt>
      <trkpt lat="43.20992" lon="0.9333">
        <ele>392.8</ele>
        <time>2013-04-12T12:46:56.000Z</time>
      </trkpt>
      <trkpt lat="43.20981" lon="0.93318">
        <ele>392.4</ele>
        <time>2013-04-12T12:47:08.000Z</time>
      </trkpt>
      <trkpt lat="43.2097" lon="0.93305">
        <ele>391.9</ele>
        <time>2013-04-12T12:47:20.000Z</time>
      </trkpt>
      <trkpt lat="43.20953" lon="0.93291">
        <ele>391.4</ele>
        <time>2013-04-12T12:47:36.000Z</time>
      </trkpt>
      <trkpt lat="43.20942" lon="0.93285">
        <ele>391.9</ele>
        <time>2013-04-12T12:47:48.000Z</time>
      </trkpt>
      <trkpt lat="43.20932" lon="0.93281">
        <ele>392.4</ele>
        <time>2013-04-12T12:47:58.000Z</time>
      </trkpt>
      <trkpt lat="43.20925" lon="0.93279">
        <ele>391.9</ele>
        <time>2013-04-12T12:48:11.000Z</time>
      </trkpt>
      <trkpt lat="43.20918" lon="0.93275">
        <ele>391.9</ele>
        <time>2013-04-12T12:48:20.000Z</time>
      </trkpt>
      <trkpt lat="43.20911" lon="0.9327">
        <ele>391.9</ele>
        <time>2013-04-12T12:48:29.000Z</time>
      </trkpt>
      <trkpt lat="43.20903" lon="0.93273">
        <ele>391.4</ele>
        <time>2013-04-12T12:48:41.000Z</time>
      </trkpt>
      <trkpt lat="43.20893" lon="0.93273">
        <ele>391.9</ele>
        <time>2013-04-12T12:48:52.000Z</time>
      </trkpt>
      <trkpt lat="43.20885" lon="0.93273">
        <ele>392.4</ele>
        <time>2013-04-12T12:49:02.000Z</time>
      </trkpt>
      <trkpt lat="43.20876" lon="0.93278">
        <ele>392.8</ele>
        <time>2013-04-12T12:49:12.000Z</time>
      </trkpt>
      <trkpt lat="43.20868" lon="0.93286">
        <ele>393.3</ele>
        <time>2013-04-12T12:49:22.000Z</time>
      </trkpt>
      <trkpt lat="43.20865" lon="0.93288">
        <ele>393.8</ele>
        <time>2013-04-12T12:49:33.000Z</time>
      </trkpt>
      <trkpt lat="43.20858" lon="0.93293">
        <ele>395.2</ele>
        <time>2013-04-12T12:49:43.000Z</time>
      </trkpt>
      <trkpt lat="43.20853" lon="0.93303">
        <ele>396.2</ele>
        <time>2013-04-12T12:49:53.000Z</time>
      </trkpt>
      <trkpt lat="43.20844" lon="0.93315">
        <ele>396.7</ele>
        <time>2013-04-12T12:50:06.000Z</time>
      </trkpt>
      <trkpt lat="43.20838" lon="0.93323">
        <ele>397.6</ele>
        <time>2013-04-12T12:50:18.000Z</time>
      </trkpt>
      <trkpt lat="43.20832" lon="0.93331">
        <ele>398.1</ele>
        <time>2013-04-12T12:50:30.000Z</time>
      </trkpt>
      <trkpt lat="43.20822" lon="0.93343">
        <ele>399.1</ele>
        <time>2013-04-12T12:50:43.000Z</time>
      </trkpt>
      <trkpt lat="43.20814" lon="0.93356">
        <ele>399.1</ele>
        <time>2013-04-12T12:50:56.000Z</time>
      </trkpt>
      <trkpt lat="43.2081" lon="0.93367">
        <ele>399.1</ele>
        <time>2013-04-12T12:51:07.000Z</time>
      </trkpt>
      <trkpt lat="43.20803" lon="0.93374">
        <ele>399.1</ele>
        <time>2013-04-12T12:51:18.000Z</time>
      </trkpt>
      <trkpt lat="43.20797" lon="0.93383">
        <ele>400</ele>
        <time>2013-04-12T12:51:28.000Z</time>
      </trkpt>
      <trkpt lat="43.20787" lon="0.93386">
        <ele>401</ele>
        <time>2013-04-12T12:51:39.000Z</time>
      </trkpt>
      <trkpt lat="43.20781" lon="0.93396">
        <ele>401</ele>
        <time>2013-04-12T12:51:49.000Z</time>
      </trkpt>
      <trkpt lat="43.20775" lon="0.93404">
        <ele>401.5</ele>
        <time>2013-04-12T12:51:57.000Z</time>
      </trkpt>
      <trkpt lat="43.20771" lon="0.93413">
        <ele>402.4</ele>
        <time>2013-04-12T12:52:08.000Z</time>
      </trkpt>
      <trkpt lat="43.20766" lon="0.93423">
        <ele>402.4</ele>
        <time>2013-04-12T12:52:17.000Z</time>
      </trkpt>
      <trkpt lat="43.2076" lon="0.93435">
        <ele>403.4</ele>
        <time>2013-04-12T12:52:27.000Z</time>
      </trkpt>
      <trkpt lat="43.20755" lon="0.93448">
        <ele>404.9</ele>
        <time>2013-04-12T12:52:35.000Z</time>
      </trkpt>
      <trkpt lat="43.20751" lon="0.9346">
        <ele>406.3</ele>
        <time>2013-04-12T12:52:45.000Z</time>
      </trkpt>
      <trkpt lat="43.20744" lon="0.93473">
        <ele>407.7</ele>
        <time>2013-04-12T12:52:57.000Z</time>
      </trkpt>
      <trkpt lat="43.20736" lon="0.93483">
        <ele>408.7</ele>
        <time>2013-04-12T12:53:09.000Z</time>
      </trkpt>
      <trkpt lat="43.20725" lon="0.93487">
        <ele>411.1</ele>
        <time>2013-04-12T12:53:21.000Z</time>
      </trkpt>
      <trkpt lat="43.20718" lon="0.93491">
        <ele>413</ele>
        <time>2013-04-12T12:53:31.000Z</time>
      </trkpt>
      <trkpt lat="43.20712" lon="0.93496">
        <ele>413</ele>
        <time>2013-04-12T12:53:41.000Z</time>
      </trkpt>
      <trkpt lat="43.20701" lon="0.93497">
        <ele>414</ele>
        <time>2013-04-12T12:53:54.000Z</time>
      </trkpt>
      <trkpt lat="43.20693" lon="0.93502">
        <ele>413</ele>
        <time>2013-04-12T12:54:05.000Z</time>
      </trkpt>
      <trkpt lat="43.20682" lon="0.9351">
        <ele>411.6</ele>
        <time>2013-04-12T12:54:16.000Z</time>
      </trkpt>
      <trkpt lat="43.20677" lon="0.9351">
        <ele>411.6</ele>
        <time>2013-04-12T12:54:20.000Z</time>
      </trkpt>
      <trkpt lat="43.20675" lon="0.93509">
        <ele>412.1</ele>
        <time>2013-04-12T12:54:23.000Z</time>
      </trkpt>
      <trkpt lat="43.2067" lon="0.93507">
        <ele>413</ele>
        <time>2013-04-12T12:54:35.000Z</time>
      </trkpt>
      <trkpt lat="43.20665" lon="0.93509">
        <ele>412.5</ele>
        <time>2013-04-12T12:54:43.000Z</time>
      </trkpt>
      <trkpt lat="43.20653" lon="0.93502">
        <ele>413.5</ele>
        <time>2013-04-12T12:54:56.000Z</time>
      </trkpt>
      <trkpt lat="43.20641" lon="0.93498">
        <ele>414.5</ele>
        <time>2013-04-12T12:55:09.000Z</time>
      </trkpt>
      <trkpt lat="43.20628" lon="0.93497">
        <ele>415.4</ele>
        <time>2013-04-12T12:55:22.000Z</time>
      </trkpt>
      <trkpt lat="43.20612" lon="0.93494">
        <ele>415.9</ele>
        <time>2013-04-12T12:55:35.000Z</time>
      </trkpt>
      <trkpt lat="43.20597" lon="0.9349">
        <ele>416.4</ele>
        <time>2013-04-12T12:55:48.000Z</time>
      </trkpt>
      <trkpt lat="43.20589" lon="0.93491">
        <ele>416.9</ele>
        <time>2013-04-12T12:55:54.000Z</time>
      </trkpt>
      <trkpt lat="43.20586" lon="0.93489">
        <ele>416.9</ele>
        <time>2013-04-12T12:55:57.000Z</time>
      </trkpt>
      <trkpt lat="43.20576" lon="0.93484">
        <ele>417.8</ele>
        <time>2013-04-12T12:56:07.000Z</time>
      </trkpt>
      <trkpt lat="43.20567" lon="0.93479">
        <ele>418.3</ele>
        <time>2013-04-12T12:56:16.000Z</time>
      </trkpt>
      <trkpt lat="43.2056" lon="0.93473">
        <ele>418.3</ele>
        <time>2013-04-12T12:56:23.000Z</time>
      </trkpt>
      <trkpt lat="43.20549" lon="0.9347">
        <ele>419.3</ele>
        <time>2013-04-12T12:56:33.000Z</time>
      </trkpt>
      <trkpt lat="43.20538" lon="0.93468">
        <ele>419.8</ele>
        <time>2013-04-12T12:56:43.000Z</time>
      </trkpt>
      <trkpt lat="43.20531" lon="0.93467">
        <ele>419.8</ele>
        <time>2013-04-12T12:56:51.000Z</time>
      </trkpt>
      <trkpt lat="43.20523" lon="0.93462">
        <ele>421.2</ele>
        <time>2013-04-12T12:57:00.000Z</time>
      </trkpt>
      <trkpt lat="43.20514" lon="0.93457">
        <ele>421.7</ele>
        <time>2013-04-12T12:57:12.000Z</time>
      </trkpt>
      <trkpt lat="43.20507" lon="0.93454">
        <ele>422.2</ele>
        <time>2013-04-12T12:57:22.000Z</time>
      </trkpt>
      <trkpt lat="43.20498" lon="0.93451">
        <ele>423.1</ele>
        <time>2013-04-12T12:57:33.000Z</time>
      </trkpt>
      <trkpt lat="43.20493" lon="0.93446">
        <ele>424.1</ele>
        <time>2013-04-12T12:57:42.000Z</time>
      </trkpt>
      <trkpt lat="43.20485" lon="0.93442">
        <ele>424.6</ele>
        <time>2013-04-12T12:57:51.000Z</time>
      </trkpt>
      <trkpt lat="43.20476" lon="0.93436">
        <ele>425.5</ele>
        <time>2013-04-12T12:58:02.000Z</time>
      </trkpt>
      <trkpt lat="43.20466" lon="0.93427">
        <ele>425.5</ele>
        <time>2013-04-12T12:58:14.000Z</time>
      </trkpt>
      <trkpt lat="43.20458" lon="0.93423">
        <ele>424.6</ele>
        <time>2013-04-12T12:58:24.000Z</time>
      </trkpt>
      <trkpt lat="43.20448" lon="0.93413">
        <ele>424.6</ele>
        <time>2013-04-12T12:58:34.000Z</time>
      </trkpt>
      <trkpt lat="43.20442" lon="0.93407">
        <ele>424.6</ele>
        <time>2013-04-12T12:58:44.000Z</time>
      </trkpt>
      <trkpt lat="43.20436" lon="0.93394">
        <ele>424.1</ele>
        <time>2013-04-12T12:58:57.000Z</time>
      </trkpt>
      <trkpt lat="43.20439" lon="0.93393">
        <ele>424.6</ele>
        <time>2013-04-12T12:59:10.000Z</time>
      </trkpt>
      <trkpt lat="43.20442" lon="0.93403">
        <ele>424.1</ele>
        <time>2013-04-12T12:59:45.000Z</time>
      </trkpt>
      <trkpt lat="43.20448" lon="0.93406">
        <ele>425</ele>
        <time>2013-04-12T13:00:02.000Z</time>
      </trkpt>
      <trkpt lat="43.20454" lon="0.93405">
        <ele>426</ele>
        <time>2013-04-12T13:00:08.000Z</time>
      </trkpt>
      <trkpt lat="43.20466" lon="0.93401">
        <ele>427.9</ele>
        <time>2013-04-12T13:00:22.000Z</time>
      </trkpt>
      <trkpt lat="43.20471" lon="0.93393">
        <ele>429.4</ele>
        <time>2013-04-12T13:00:33.000Z</time>
      </trkpt>
      <trkpt lat="43.20477" lon="0.93384">
        <ele>430.8</ele>
        <time>2013-04-12T13:00:41.000Z</time>
      </trkpt>
      <trkpt lat="43.20483" lon="0.93374">
        <ele>432.2</ele>
        <time>2013-04-12T13:00:53.000Z</time>
      </trkpt>
      <trkpt lat="43.20489" lon="0.93362">
        <ele>434.2</ele>
        <time>2013-04-12T13:01:03.000Z</time>
      </trkpt>
      <trkpt lat="43.20495" lon="0.93353">
        <ele>436.6</ele>
        <time>2013-04-12T13:01:14.000Z</time>
      </trkpt>
      <trkpt lat="43.20504" lon="0.93348">
        <ele>438</ele>
        <time>2013-04-12T13:01:24.000Z</time>
      </trkpt>
      <trkpt lat="43.20509" lon="0.93337">
        <ele>439</ele>
        <time>2013-04-12T13:01:32.000Z</time>
      </trkpt>
      <trkpt lat="43.20512" lon="0.93326">
        <ele>440.9</ele>
        <time>2013-04-12T13:01:44.000Z</time>
      </trkpt>
      <trkpt lat="43.20514" lon="0.93314">
        <ele>442.3</ele>
        <time>2013-04-12T13:01:57.000Z</time>
      </trkpt>
      <trkpt lat="43.20514" lon="0.93299">
        <ele>443.8</ele>
        <time>2013-04-12T13:02:07.000Z</time>
      </trkpt>
      <trkpt lat="43.20513" lon="0.93284">
        <ele>445.2</ele>
        <time>2013-04-12T13:02:19.000Z</time>
      </trkpt>
      <trkpt lat="43.20514" lon="0.93266">
        <ele>446.2</ele>
        <time>2013-04-12T13:02:33.000Z</time>
      </trkpt>
      <trkpt lat="43.20517" lon="0.93252">
        <ele>447.2</ele>
        <time>2013-04-12T13:02:44.000Z</time>
      </trkpt>
      <trkpt lat="43.20518" lon="0.93234">
        <ele>448.6</ele>
        <time>2013-04-12T13:02:59.000Z</time>
      </trkpt>
      <trkpt lat="43.20518" lon="0.9322">
        <ele>449.1</ele>
        <time>2013-04-12T13:03:08.000Z</time>
      </trkpt>
      <trkpt lat="43.2052" lon="0.93207">
        <ele>450.5</ele>
        <time>2013-04-12T13:03:18.000Z</time>
      </trkpt>
      <trkpt lat="43.20522" lon="0.93193">
        <ele>451.5</ele>
        <time>2013-04-12T13:03:30.000Z</time>
      </trkpt>
      <trkpt lat="43.20521" lon="0.93175">
        <ele>452.4</ele>
        <time>2013-04-12T13:03:40.000Z</time>
      </trkpt>
      <trkpt lat="43.20522" lon="0.93162">
        <ele>453.9</ele>
        <time>2013-04-12T13:03:52.000Z</time>
      </trkpt>
      <trkpt lat="43.20528" lon="0.9315">
        <ele>454.8</ele>
        <time>2013-04-12T13:04:03.000Z</time>
      </trkpt>
      <trkpt lat="43.20537" lon="0.93147">
        <ele>456.8</ele>
        <time>2013-04-12T13:04:15.000Z</time>
      </trkpt>
      <trkpt lat="43.20546" lon="0.93147">
        <ele>457.7</ele>
        <time>2013-04-12T13:04:26.000Z</time>
      </trkpt>
      <trkpt lat="43.20557" lon="0.93146">
        <ele>458.7</ele>
        <time>2013-04-12T13:04:38.000Z</time>
      </trkpt>
      <trkpt lat="43.20571" lon="0.93147">
        <ele>459.6</ele>
        <time>2013-04-12T13:04:52.000Z</time>
      </trkpt>
      <trkpt lat="43.20583" lon="0.93147">
        <ele>460.6</ele>
        <time>2013-04-12T13:05:04.000Z</time>
      </trkpt>
      <trkpt lat="43.20594" lon="0.93145">
        <ele>462.1</ele>
        <time>2013-04-12T13:05:15.000Z</time>
      </trkpt>
      <trkpt lat="43.206" lon="0.93137">
        <ele>463</ele>
        <time>2013-04-12T13:05:25.000Z</time>
      </trkpt>
      <trkpt lat="43.20613" lon="0.93129">
        <ele>464.9</ele>
        <time>2013-04-12T13:05:39.000Z</time>
      </trkpt>
      <trkpt lat="43.20622" lon="0.93128">
        <ele>465.9</ele>
        <time>2013-04-12T13:05:48.000Z</time>
      </trkpt>
      <trkpt lat="43.20632" lon="0.93129">
        <ele>466.9</ele>
        <time>2013-04-12T13:06:03.000Z</time>
      </trkpt>
      <trkpt lat="43.20639" lon="0.93123">
        <ele>467.8</ele>
        <time>2013-04-12T13:06:14.000Z</time>
      </trkpt>
      <trkpt lat="43.20647" lon="0.93111">
        <ele>469.3</ele>
        <time>2013-04-12T13:06:27.000Z</time>
      </trkpt>
      <trkpt lat="43.20653" lon="0.93102">
        <ele>470.2</ele>
        <time>2013-04-12T13:06:37.000Z</time>
      </trkpt>
      <trkpt lat="43.2066" lon="0.93093">
        <ele>471.2</ele>
        <time>2013-04-12T13:06:48.000Z</time>
      </trkpt>
      <trkpt lat="43.20668" lon="0.93093">
        <ele>471.7</ele>
        <time>2013-04-12T13:06:56.000Z</time>
      </trkpt>
      <trkpt lat="43.20679" lon="0.93081">
        <ele>474.1</ele>
        <time>2013-04-12T13:07:09.000Z</time>
      </trkpt>
      <trkpt lat="43.20688" lon="0.93066">
        <ele>476</ele>
        <time>2013-04-12T13:07:23.000Z</time>
      </trkpt>
      <trkpt lat="43.20691" lon="0.93059">
        <ele>476.5</ele>
        <time>2013-04-12T13:07:32.000Z</time>
      </trkpt>
      <trkpt lat="43.20689" lon="0.93053">
        <ele>476.5</ele>
        <time>2013-04-12T13:07:43.000Z</time>
      </trkpt>
      <trkpt lat="43.20684" lon="0.93046">
        <ele>477</ele>
        <time>2013-04-12T13:07:53.000Z</time>
      </trkpt>
      <trkpt lat="43.2068" lon="0.93038">
        <ele>476</ele>
        <time>2013-04-12T13:08:05.000Z</time>
      </trkpt>
      <trkpt lat="43.20683" lon="0.93039">
        <ele>476.5</ele>
        <time>2013-04-12T13:08:16.000Z</time>
      </trkpt>
      <trkpt lat="43.20678" lon="0.9303">
        <ele>476</ele>
        <time>2013-04-12T13:08:34.000Z</time>
      </trkpt>
      <trkpt lat="43.20672" lon="0.93027">
        <ele>475.5</ele>
        <time>2013-04-12T13:08:41.000Z</time>
      </trkpt>
      <trkpt lat="43.20673" lon="0.93011">
        <ele>475.5</ele>
        <time>2013-04-12T13:08:52.000Z</time>
      </trkpt>
      <trkpt lat="43.20679" lon="0.92996">
        <ele>477.4</ele>
        <time>2013-04-12T13:09:06.000Z</time>
      </trkpt>
      <trkpt lat="43.20686" lon="0.92981">
        <ele>478.9</ele>
        <time>2013-04-12T13:09:19.000Z</time>
      </trkpt>
      <trkpt lat="43.20694" lon="0.92966">
        <ele>479.4</ele>
        <time>2013-04-12T13:09:31.000Z</time>
      </trkpt>
      <trkpt lat="43.20698" lon="0.92959">
        <ele>480.3</ele>
        <time>2013-04-12T13:09:41.000Z</time>
      </trkpt>
      <trkpt lat="43.20705" lon="0.92947">
        <ele>480.8</ele>
        <time>2013-04-12T13:09:52.000Z</time>
      </trkpt>
      <trkpt lat="43.20712" lon="0.92934">
        <ele>481.8</ele>
        <time>2013-04-12T13:10:03.000Z</time>
      </trkpt>
      <trkpt lat="43.20716" lon="0.92921">
        <ele>482.2</ele>
        <time>2013-04-12T13:10:15.000Z</time>
      </trkpt>
      <trkpt lat="43.20719" lon="0.92909">
        <ele>484.6</ele>
        <time>2013-04-12T13:10:25.000Z</time>
      </trkpt>
      <trkpt lat="43.20728" lon="0.92898">
        <ele>487</ele>
        <time>2013-04-12T13:10:38.000Z</time>
      </trkpt>
      <trkpt lat="43.20739" lon="0.92893">
        <ele>489</ele>
        <time>2013-04-12T13:10:49.000Z</time>
      </trkpt>
      <trkpt lat="43.20749" lon="0.92882">
        <ele>489.9</ele>
        <time>2013-04-12T13:11:02.000Z</time>
      </trkpt>
      <trkpt lat="43.20758" lon="0.92873">
        <ele>491.9</ele>
        <time>2013-04-12T13:11:13.000Z</time>
      </trkpt>
      <trkpt lat="43.20768" lon="0.9286">
        <ele>493.3</ele>
        <time>2013-04-12T13:11:27.000Z</time>
      </trkpt>
      <trkpt lat="43.20777" lon="0.92845">
        <ele>493.8</ele>
        <time>2013-04-12T13:11:40.000Z</time>
      </trkpt>
      <trkpt lat="43.20785" lon="0.92827">
        <ele>495.7</ele>
        <time>2013-04-12T13:11:54.000Z</time>
      </trkpt>
      <trkpt lat="43.20789" lon="0.92813">
        <ele>495.2</ele>
        <time>2013-04-12T13:12:06.000Z</time>
      </trkpt>
      <trkpt lat="43.20791" lon="0.92795">
        <ele>494.7</ele>
        <time>2013-04-12T13:12:18.000Z</time>
      </trkpt>
      <trkpt lat="43.20789" lon="0.92782">
        <ele>492.8</ele>
        <time>2013-04-12T13:12:27.000Z</time>
      </trkpt>
      <trkpt lat="43.20788" lon="0.9276">
        <ele>491.9</ele>
        <time>2013-04-12T13:12:38.000Z</time>
      </trkpt>
      <trkpt lat="43.20787" lon="0.92745">
        <ele>490.4</ele>
        <time>2013-04-12T13:12:47.000Z</time>
      </trkpt>
      <trkpt lat="43.20791" lon="0.92723">
        <ele>490.4</ele>
        <time>2013-04-12T13:13:01.000Z</time>
      </trkpt>
      <trkpt lat="43.20797" lon="0.92703">
        <ele>489.4</ele>
        <time>2013-04-12T13:13:14.000Z</time>
      </trkpt>
      <trkpt lat="43.20805" lon="0.92686">
        <ele>489</ele>
        <time>2013-04-12T13:13:27.000Z</time>
      </trkpt>
      <trkpt lat="43.2081" lon="0.92672">
        <ele>488.5</ele>
        <time>2013-04-12T13:13:37.000Z</time>
      </trkpt>
      <trkpt lat="43.20814" lon="0.92656">
        <ele>487.5</ele>
        <time>2013-04-12T13:13:48.000Z</time>
      </trkpt>
      <trkpt lat="43.20821" lon="0.9264">
        <ele>487</ele>
        <time>2013-04-12T13:14:01.000Z</time>
      </trkpt>
      <trkpt lat="43.20829" lon="0.92625">
        <ele>486.6</ele>
        <time>2013-04-12T13:14:13.000Z</time>
      </trkpt>
      <trkpt lat="43.20835" lon="0.92615">
        <ele>487</ele>
        <time>2013-04-12T13:14:23.000Z</time>
      </trkpt>
      <trkpt lat="43.20848" lon="0.92598">
        <ele>487.5</ele>
        <time>2013-04-12T13:14:39.000Z</time>
      </trkpt>
      <trkpt lat="43.20856" lon="0.92587">
        <ele>488</ele>
        <time>2013-04-12T13:14:49.000Z</time>
      </trkpt>
      <trkpt lat="43.20867" lon="0.92573">
        <ele>489</ele>
        <time>2013-04-12T13:15:01.000Z</time>
      </trkpt>
      <trkpt lat="43.20878" lon="0.92563">
        <ele>489.4</ele>
        <time>2013-04-12T13:15:12.000Z</time>
      </trkpt>
      <trkpt lat="43.20885" lon="0.9255">
        <ele>490.9</ele>
        <time>2013-04-12T13:15:22.000Z</time>
      </trkpt>
      <trkpt lat="43.20896" lon="0.92534">
        <ele>491.4</ele>
        <time>2013-04-12T13:15:35.000Z</time>
      </trkpt>
      <trkpt lat="43.20897" lon="0.92531">
        <ele>491.4</ele>
        <time>2013-04-12T13:15:37.000Z</time>
      </trkpt>
      <trkpt lat="43.20904" lon="0.92517">
        <ele>492.3</ele>
        <time>2013-04-12T13:15:47.000Z</time>
      </trkpt>
      <trkpt lat="43.20905" lon="0.92514">
        <ele>492.3</ele>
        <time>2013-04-12T13:15:49.000Z</time>
      </trkpt>
      <trkpt lat="43.20907" lon="0.92509">
        <ele>492.8</ele>
        <time>2013-04-12T13:15:52.000Z</time>
      </trkpt>
      <trkpt lat="43.20916" lon="0.92484">
        <ele>494.3</ele>
        <time>2013-04-12T13:16:08.000Z</time>
      </trkpt>
      <trkpt lat="43.20921" lon="0.92467">
        <ele>494.7</ele>
        <time>2013-04-12T13:16:22.000Z</time>
      </trkpt>
      <trkpt lat="43.20929" lon="0.92466">
        <ele>496.7</ele>
        <time>2013-04-12T13:16:33.000Z</time>
      </trkpt>
      <trkpt lat="43.2094" lon="0.92465">
        <ele>498.1</ele>
        <time>2013-04-12T13:16:42.000Z</time>
      </trkpt>
      <trkpt lat="43.20948" lon="0.92467">
        <ele>499.5</ele>
        <time>2013-04-12T13:16:51.000Z</time>
      </trkpt>
      <trkpt lat="43.20962" lon="0.92466">
        <ele>501.5</ele>
        <time>2013-04-12T13:17:04.000Z</time>
      </trkpt>
      <trkpt lat="43.20975" lon="0.92467">
        <ele>503.9</ele>
        <time>2013-04-12T13:17:17.000Z</time>
      </trkpt>
      <trkpt lat="43.20985" lon="0.92468">
        <ele>505.3</ele>
        <time>2013-04-12T13:17:28.000Z</time>
      </trkpt>
      <trkpt lat="43.20995" lon="0.92466">
        <ele>506.3</ele>
        <time>2013-04-12T13:17:38.000Z</time>
      </trkpt>
      <trkpt lat="43.21006" lon="0.92463">
        <ele>506.8</ele>
        <time>2013-04-12T13:17:49.000Z</time>
      </trkpt>
      <trkpt lat="43.21017" lon="0.92463">
        <ele>506.8</ele>
        <time>2013-04-12T13:17:58.000Z</time>
      </trkpt>
      <trkpt lat="43.21024" lon="0.9245">
        <ele>507.2</ele>
        <time>2013-04-12T13:18:09.000Z</time>
      </trkpt>
      <trkpt lat="43.2103" lon="0.92438">
        <ele>507.7</ele>
        <time>2013-04-12T13:18:20.000Z</time>
      </trkpt>
      <trkpt lat="43.21036" lon="0.92427">
        <ele>508.7</ele>
        <time>2013-04-12T13:18:30.000Z</time>
      </trkpt>
      <trkpt lat="43.21037" lon="0.92424">
        <ele>508.7</ele>
        <time>2013-04-12T13:18:32.000Z</time>
      </trkpt>
      <trkpt lat="43.21036" lon="0.92411">
        <ele>509.2</ele>
        <time>2013-04-12T13:18:43.000Z</time>
      </trkpt>
      <trkpt lat="43.21035" lon="0.9241">
        <ele>510.6</ele>
        <time>2013-04-12T13:18:46.000Z</time>
      </trkpt>
      <trkpt lat="43.21035" lon="0.92411">
        <ele>509.6</ele>
        <time>2013-04-12T13:18:58.000Z</time>
      </trkpt>
      <trkpt lat="43.21037" lon="0.92405">
        <ele>509.6</ele>
        <time>2013-04-12T13:19:07.000Z</time>
      </trkpt>
      <trkpt lat="43.21037" lon="0.92401">
        <ele>509.6</ele>
        <time>2013-04-12T13:19:09.000Z</time>
      </trkpt>
      <trkpt lat="43.21035" lon="0.92386">
        <ele>509.6</ele>
        <time>2013-04-12T13:19:17.000Z</time>
      </trkpt>
      <trkpt lat="43.21036" lon="0.92367">
        <ele>510.1</ele>
        <time>2013-04-12T13:19:29.000Z</time>
      </trkpt>
      <trkpt lat="43.21038" lon="0.92348">
        <ele>509.2</ele>
        <time>2013-04-12T13:19:43.000Z</time>
      </trkpt>
      <trkpt lat="43.21042" lon="0.92338">
        <ele>508.7</ele>
        <time>2013-04-12T13:19:54.000Z</time>
      </trkpt>
      <trkpt lat="43.21046" lon="0.92326">
        <ele>508.2</ele>
        <time>2013-04-12T13:20:04.000Z</time>
      </trkpt>
      <trkpt lat="43.2105" lon="0.92308">
        <ele>506.8</ele>
        <time>2013-04-12T13:20:17.000Z</time>
      </trkpt>
      <trkpt lat="43.21048" lon="0.92282">
        <ele>505.8</ele>
        <time>2013-04-12T13:20:28.000Z</time>
      </trkpt>
      <trkpt lat="43.21048" lon="0.92258">
        <ele>504.8</ele>
        <time>2013-04-12T13:20:40.000Z</time>
      </trkpt>
      <trkpt lat="43.21048" lon="0.92235">
        <ele>503.4</ele>
        <time>2013-04-12T13:20:51.000Z</time>
      </trkpt>
      <trkpt lat="43.2105" lon="0.92222">
        <ele>502.9</ele>
        <time>2013-04-12T13:21:01.000Z</time>
      </trkpt>
      <trkpt lat="43.21052" lon="0.92206">
        <ele>501.9</ele>
        <time>2013-04-12T13:21:13.000Z</time>
      </trkpt>
      <trkpt lat="43.21055" lon="0.92187">
        <ele>500</ele>
        <time>2013-04-12T13:21:26.000Z</time>
      </trkpt>
      <trkpt lat="43.21058" lon="0.9217">
        <ele>499.1</ele>
        <time>2013-04-12T13:21:37.000Z</time>
      </trkpt>
      <trkpt lat="43.2106" lon="0.92151">
        <ele>498.6</ele>
        <time>2013-04-12T13:21:48.000Z</time>
      </trkpt>
      <trkpt lat="43.21065" lon="0.92139">
        <ele>497.1</ele>
        <time>2013-04-12T13:21:56.000Z</time>
      </trkpt>
      <trkpt lat="43.21071" lon="0.92126">
        <ele>496.7</ele>
        <time>2013-04-12T13:22:07.000Z</time>
      </trkpt>
      <trkpt lat="43.21073" lon="0.92118">
        <ele>496.2</ele>
        <time>2013-04-12T13:22:16.000Z</time>
      </trkpt>
      <trkpt lat="43.21068" lon="0.92095">
        <ele>495.7</ele>
        <time>2013-04-12T13:22:28.000Z</time>
      </trkpt>
      <trkpt lat="43.21064" lon="0.92073">
        <ele>494.3</ele>
        <time>2013-04-12T13:22:39.000Z</time>
      </trkpt>
      <trkpt lat="43.21063" lon="0.92059">
        <ele>494.7</ele>
        <time>2013-04-12T13:22:49.000Z</time>
      </trkpt>
      <trkpt lat="43.21064" lon="0.92037">
        <ele>493.8</ele>
        <time>2013-04-12T13:23:01.000Z</time>
      </trkpt>
      <trkpt lat="43.21063" lon="0.92017">
        <ele>492.8</ele>
        <time>2013-04-12T13:23:13.000Z</time>
      </trkpt>
      <trkpt lat="43.21063" lon="0.92">
        <ele>492.3</ele>
        <time>2013-04-12T13:23:24.000Z</time>
      </trkpt>
      <trkpt lat="43.21062" lon="0.91992">
        <ele>491.9</ele>
        <time>2013-04-12T13:23:29.000Z</time>
      </trkpt>
      <trkpt lat="43.21061" lon="0.91975">
        <ele>490.9</ele>
        <time>2013-04-12T13:23:39.000Z</time>
      </trkpt>
      <trkpt lat="43.2106" lon="0.9196">
        <ele>490.4</ele>
        <time>2013-04-12T13:23:50.000Z</time>
      </trkpt>
      <trkpt lat="43.21056" lon="0.91942">
        <ele>489</ele>
        <time>2013-04-12T13:24:00.000Z</time>
      </trkpt>
      <trkpt lat="43.21054" lon="0.91924">
        <ele>489</ele>
        <time>2013-04-12T13:24:09.000Z</time>
      </trkpt>
      <trkpt lat="43.21059" lon="0.91903">
        <ele>488</ele>
        <time>2013-04-12T13:24:24.000Z</time>
      </trkpt>
      <trkpt lat="43.21064" lon="0.91889">
        <ele>487.5</ele>
        <time>2013-04-12T13:24:35.000Z</time>
      </trkpt>
      <trkpt lat="43.21067" lon="0.91873">
        <ele>487</ele>
        <time>2013-04-12T13:24:49.000Z</time>
      </trkpt>
      <trkpt lat="43.21066" lon="0.91866">
        <ele>487</ele>
        <time>2013-04-12T13:25:01.000Z</time>
      </trkpt>
      <trkpt lat="43.21064" lon="0.91854">
        <ele>486.1</ele>
        <time>2013-04-12T13:25:10.000Z</time>
      </trkpt>
      <trkpt lat="43.21065" lon="0.91838">
        <ele>484.2</ele>
        <time>2013-04-12T13:25:23.000Z</time>
      </trkpt>
      <trkpt lat="43.21066" lon="0.91822">
        <ele>482.7</ele>
        <time>2013-04-12T13:25:36.000Z</time>
      </trkpt>
      <trkpt lat="43.21064" lon="0.91789">
        <ele>481.8</ele>
        <time>2013-04-12T13:25:53.000Z</time>
      </trkpt>
      <trkpt lat="43.21064" lon="0.91759">
        <ele>479.4</ele>
        <time>2013-04-12T13:26:08.000Z</time>
      </trkpt>
      <trkpt lat="43.21066" lon="0.91735">
        <ele>477.4</ele>
        <time>2013-04-12T13:26:22.000Z</time>
      </trkpt>
      <trkpt lat="43.21062" lon="0.91708">
        <ele>474.5</ele>
        <time>2013-04-12T13:26:37.000Z</time>
      </trkpt>
      <trkpt lat="43.21056" lon="0.91685">
        <ele>474.1</ele>
        <time>2013-04-12T13:26:50.000Z</time>
      </trkpt>
      <trkpt lat="43.21066" lon="0.91671">
        <ele>472.6</ele>
        <time>2013-04-12T13:27:04.000Z</time>
      </trkpt>
      <trkpt lat="43.21068" lon="0.91664">
        <ele>472.1</ele>
        <time>2013-04-12T13:27:09.000Z</time>
      </trkpt>
      <trkpt lat="43.21073" lon="0.91651">
        <ele>471.7</ele>
        <time>2013-04-12T13:27:18.000Z</time>
      </trkpt>
      <trkpt lat="43.21078" lon="0.91627">
        <ele>472.1</ele>
        <time>2013-04-12T13:27:35.000Z</time>
      </trkpt>
      <trkpt lat="43.2108" lon="0.91605">
        <ele>472.6</ele>
        <time>2013-04-12T13:27:48.000Z</time>
      </trkpt>
      <trkpt lat="43.21079" lon="0.91585">
        <ele>472.6</ele>
        <time>2013-04-12T13:28:00.000Z</time>
      </trkpt>
      <trkpt lat="43.21078" lon="0.91558">
        <ele>474.5</ele>
        <time>2013-04-12T13:28:12.000Z</time>
      </trkpt>
      <trkpt lat="43.21077" lon="0.91539">
        <ele>475.5</ele>
        <time>2013-04-12T13:28:24.000Z</time>
      </trkpt>
      <trkpt lat="43.21078" lon="0.91534">
        <ele>476.5</ele>
        <time>2013-04-12T13:28:36.000Z</time>
      </trkpt>
      <trkpt lat="43.21078" lon="0.91533">
        <ele>475.5</ele>
        <time>2013-04-12T13:28:37.000Z</time>
      </trkpt>
      <trkpt lat="43.21078" lon="0.91516">
        <ele>478.4</ele>
        <time>2013-04-12T13:28:50.000Z</time>
      </trkpt>
      <trkpt lat="43.21078" lon="0.91502">
        <ele>480.8</ele>
        <time>2013-04-12T13:29:01.000Z</time>
      </trkpt>
      <trkpt lat="43.21077" lon="0.91487">
        <ele>481.3</ele>
        <time>2013-04-12T13:29:11.000Z</time>
      </trkpt>
      <trkpt lat="43.21074" lon="0.91471">
        <ele>482.7</ele>
        <time>2013-04-12T13:29:21.000Z</time>
      </trkpt>
      <trkpt lat="43.21076" lon="0.91468">
        <ele>483.2</ele>
        <time>2013-04-12T13:29:38.000Z</time>
      </trkpt>
      <trkpt lat="43.21072" lon="0.91457">
        <ele>482.7</ele>
        <time>2013-04-12T13:29:51.000Z</time>
      </trkpt>
      <trkpt lat="43.21071" lon="0.91446">
        <ele>483.2</ele>
        <time>2013-04-12T13:30:01.000Z</time>
      </trkpt>
      <trkpt lat="43.2107" lon="0.91426">
        <ele>483.7</ele>
        <time>2013-04-12T13:30:17.000Z</time>
      </trkpt>
      <trkpt lat="43.21069" lon="0.91414">
        <ele>483.7</ele>
        <time>2013-04-12T13:30:29.000Z</time>
      </trkpt>
      <trkpt lat="43.2107" lon="0.9139">
        <ele>483.7</ele>
        <time>2013-04-12T13:30:44.000Z</time>
      </trkpt>
      <trkpt lat="43.21072" lon="0.91371">
        <ele>483.2</ele>
        <time>2013-04-12T13:30:58.000Z</time>
      </trkpt>
      <trkpt lat="43.21073" lon="0.91357">
        <ele>482.7</ele>
        <time>2013-04-12T13:31:17.000Z</time>
      </trkpt>
      <trkpt lat="43.21077" lon="0.91334">
        <ele>481.8</ele>
        <time>2013-04-12T13:31:31.000Z</time>
      </trkpt>
      <trkpt lat="43.21084" lon="0.9131">
        <ele>480.3</ele>
        <time>2013-04-12T13:31:47.000Z</time>
      </trkpt>
      <trkpt lat="43.21086" lon="0.91301">
        <ele>479.4</ele>
        <time>2013-04-12T13:31:52.000Z</time>
      </trkpt>
      <trkpt lat="43.21094" lon="0.91277">
        <ele>479.4</ele>
        <time>2013-04-12T13:32:07.000Z</time>
      </trkpt>
      <trkpt lat="43.21096" lon="0.91265">
        <ele>477.9</ele>
        <time>2013-04-12T13:32:14.000Z</time>
      </trkpt>
      <trkpt lat="43.21104" lon="0.91244">
        <ele>477.4</ele>
        <time>2013-04-12T13:32:29.000Z</time>
      </trkpt>
      <trkpt lat="43.21107" lon="0.91227">
        <ele>477</ele>
        <time>2013-04-12T13:32:41.000Z</time>
      </trkpt>
      <trkpt lat="43.21111" lon="0.912">
        <ele>476</ele>
        <time>2013-04-12T13:32:54.000Z</time>
      </trkpt>
      <trkpt lat="43.21118" lon="0.91174">
        <ele>476.5</ele>
        <time>2013-04-12T13:33:10.000Z</time>
      </trkpt>
      <trkpt lat="43.21121" lon="0.91161">
        <ele>476</ele>
        <time>2013-04-12T13:33:19.000Z</time>
      </trkpt>
      <trkpt lat="43.21122" lon="0.91134">
        <ele>476</ele>
        <time>2013-04-12T13:33:32.000Z</time>
      </trkpt>
      <trkpt lat="43.21123" lon="0.91113">
        <ele>475.5</ele>
        <time>2013-04-12T13:33:44.000Z</time>
      </trkpt>
      <trkpt lat="43.21122" lon="0.91107">
        <ele>475</ele>
        <time>2013-04-12T13:33:55.000Z</time>
      </trkpt>
      <trkpt lat="43.21116" lon="0.91097">
        <ele>474.1</ele>
        <time>2013-04-12T13:34:06.000Z</time>
      </trkpt>
      <trkpt lat="43.21109" lon="0.91084">
        <ele>473.1</ele>
        <time>2013-04-12T13:34:20.000Z</time>
      </trkpt>
      <trkpt lat="43.21101" lon="0.91073">
        <ele>472.1</ele>
        <time>2013-04-12T13:34:31.000Z</time>
      </trkpt>
      <trkpt lat="43.21092" lon="0.91063">
        <ele>471.2</ele>
        <time>2013-04-12T13:34:42.000Z</time>
      </trkpt>
      <trkpt lat="43.2108" lon="0.91057">
        <ele>469.3</ele>
        <time>2013-04-12T13:34:53.000Z</time>
      </trkpt>
      <trkpt lat="43.21066" lon="0.91047">
        <ele>467.3</ele>
        <time>2013-04-12T13:35:06.000Z</time>
      </trkpt>
      <trkpt lat="43.2105" lon="0.91037">
        <ele>464.9</ele>
        <time>2013-04-12T13:35:21.000Z</time>
      </trkpt>
      <trkpt lat="43.21036" lon="0.91033">
        <ele>462.5</ele>
        <time>2013-04-12T13:35:34.000Z</time>
      </trkpt>
      <trkpt lat="43.21019" lon="0.91027">
        <ele>459.6</ele>
        <time>2013-04-12T13:35:50.000Z</time>
      </trkpt>
      <trkpt lat="43.21011" lon="0.91018">
        <ele>457.7</ele>
        <time>2013-04-12T13:36:02.000Z</time>
      </trkpt>
      <trkpt lat="43.21008" lon="0.91019">
        <ele>456.8</ele>
        <time>2013-04-12T13:36:06.000Z</time>
      </trkpt>
      <trkpt lat="43.21" lon="0.9103">
        <ele>455.3</ele>
        <time>2013-04-12T13:36:19.000Z</time>
      </trkpt>
      <trkpt lat="43.20995" lon="0.91039">
        <ele>452.9</ele>
        <time>2013-04-12T13:36:28.000Z</time>
      </trkpt>
      <trkpt lat="43.2099" lon="0.91046">
        <ele>451</ele>
        <time>2013-04-12T13:36:37.000Z</time>
      </trkpt>
      <trkpt lat="43.20987" lon="0.91052">
        <ele>449.6</ele>
        <time>2013-04-12T13:36:43.000Z</time>
      </trkpt>
      <trkpt lat="43.20979" lon="0.91059">
        <ele>448.1</ele>
        <time>2013-04-12T13:36:52.000Z</time>
      </trkpt>
      <trkpt lat="43.20968" lon="0.91071">
        <ele>447.2</ele>
        <time>2013-04-12T13:37:06.000Z</time>
      </trkpt>
      <trkpt lat="43.20961" lon="0.91079">
        <ele>445.7</ele>
        <time>2013-04-12T13:37:16.000Z</time>
      </trkpt>
      <trkpt lat="43.20953" lon="0.9109">
        <ele>444.3</ele>
        <time>2013-04-12T13:37:25.000Z</time>
      </trkpt>
      <trkpt lat="43.20948" lon="0.91093">
        <ele>443.3</ele>
        <time>2013-04-12T13:37:30.000Z</time>
      </trkpt>
      <trkpt lat="43.20937" lon="0.91089">
        <ele>439.9</ele>
        <time>2013-04-12T13:37:42.000Z</time>
      </trkpt>
      <trkpt lat="43.20925" lon="0.91089">
        <ele>438.5</ele>
        <time>2013-04-12T13:37:54.000Z</time>
      </trkpt>
      <trkpt lat="43.20915" lon="0.91087">
        <ele>436.6</ele>
        <time>2013-04-12T13:38:05.000Z</time>
      </trkpt>
      <trkpt lat="43.20903" lon="0.91084">
        <ele>434.7</ele>
        <time>2013-04-12T13:38:17.000Z</time>
      </trkpt>
      <trkpt lat="43.20901" lon="0.91085">
        <ele>434.2</ele>
        <time>2013-04-12T13:38:19.000Z</time>
      </trkpt>
      <trkpt lat="43.20888" lon="0.91083">
        <ele>432.7</ele>
        <time>2013-04-12T13:38:31.000Z</time>
      </trkpt>
      <trkpt lat="43.20874" lon="0.91082">
        <ele>429.8</ele>
        <time>2013-04-12T13:38:44.000Z</time>
      </trkpt>
      <trkpt lat="43.20861" lon="0.91081">
        <ele>427</ele>
        <time>2013-04-12T13:38:56.000Z</time>
      </trkpt>
      <trkpt lat="43.2085" lon="0.91077">
        <ele>424.1</ele>
        <time>2013-04-12T13:39:08.000Z</time>
      </trkpt>
      <trkpt lat="43.20841" lon="0.91073">
        <ele>422.2</ele>
        <time>2013-04-12T13:39:18.000Z</time>
      </trkpt>
      <trkpt lat="43.20825" lon="0.91067">
        <ele>419.8</ele>
        <time>2013-04-12T13:39:33.000Z</time>
      </trkpt>
      <trkpt lat="43.20808" lon="0.91067">
        <ele>418.8</ele>
        <time>2013-04-12T13:39:47.000Z</time>
      </trkpt>
      <trkpt lat="43.20796" lon="0.91066">
        <ele>417.8</ele>
        <time>2013-04-12T13:39:59.000Z</time>
      </trkpt>
      <trkpt lat="43.20783" lon="0.91064">
        <ele>414.9</ele>
        <time>2013-04-12T13:40:12.000Z</time>
      </trkpt>
      <trkpt lat="43.20771" lon="0.91061">
        <ele>412.1</ele>
        <time>2013-04-12T13:40:25.000Z</time>
      </trkpt>
      <trkpt lat="43.20758" lon="0.9106">
        <ele>410.1</ele>
        <time>2013-04-12T13:40:37.000Z</time>
      </trkpt>
      <trkpt lat="43.20747" lon="0.91058">
        <ele>407.3</ele>
        <time>2013-04-12T13:40:48.000Z</time>
      </trkpt>
      <trkpt lat="43.20732" lon="0.91055">
        <ele>404.9</ele>
        <time>2013-04-12T13:41:02.000Z</time>
      </trkpt>
      <trkpt lat="43.20724" lon="0.9105">
        <ele>402</ele>
        <time>2013-04-12T13:41:12.000Z</time>
      </trkpt>
      <trkpt lat="43.20724" lon="0.91049">
        <ele>401.5</ele>
        <time>2013-04-12T13:41:13.000Z</time>
      </trkpt>
      <trkpt lat="43.20723" lon="0.91032">
        <ele>400.5</ele>
        <time>2013-04-12T13:41:23.000Z</time>
      </trkpt>
      <trkpt lat="43.20723" lon="0.91006">
        <ele>400.5</ele>
        <time>2013-04-12T13:41:38.000Z</time>
      </trkpt>
      <trkpt lat="43.20727" lon="0.90991">
        <ele>400.5</ele>
        <time>2013-04-12T13:41:49.000Z</time>
      </trkpt>
      <trkpt lat="43.20728" lon="0.90978">
        <ele>400.5</ele>
        <time>2013-04-12T13:41:57.000Z</time>
      </trkpt>
      <trkpt lat="43.20735" lon="0.90962">
        <ele>399.6</ele>
        <time>2013-04-12T13:42:09.000Z</time>
      </trkpt>
      <trkpt lat="43.20743" lon="0.90942">
        <ele>398.1</ele>
        <time>2013-04-12T13:42:23.000Z</time>
      </trkpt>
      <trkpt lat="43.20749" lon="0.90931">
        <ele>398.1</ele>
        <time>2013-04-12T13:42:33.000Z</time>
      </trkpt>
      <trkpt lat="43.20753" lon="0.90928">
        <ele>398.1</ele>
        <time>2013-04-12T13:42:36.000Z</time>
      </trkpt>
      <trkpt lat="43.20754" lon="0.90925">
        <ele>398.1</ele>
        <time>2013-04-12T13:42:38.000Z</time>
      </trkpt>
      <trkpt lat="43.20762" lon="0.90913">
        <ele>399.1</ele>
        <time>2013-04-12T13:42:49.000Z</time>
      </trkpt>
      <trkpt lat="43.20766" lon="0.90902">
        <ele>399.6</ele>
        <time>2013-04-12T13:42:59.000Z</time>
      </trkpt>
      <trkpt lat="43.20773" lon="0.90897">
        <ele>399.6</ele>
        <time>2013-04-12T13:43:06.000Z</time>
      </trkpt>
      <trkpt lat="43.20784" lon="0.90893">
        <ele>401</ele>
        <time>2013-04-12T13:43:16.000Z</time>
      </trkpt>
      <trkpt lat="43.20794" lon="0.90885">
        <ele>401.5</ele>
        <time>2013-04-12T13:43:28.000Z</time>
      </trkpt>
      <trkpt lat="43.208" lon="0.90877">
        <ele>401</ele>
        <time>2013-04-12T13:43:38.000Z</time>
      </trkpt>
      <trkpt lat="43.208" lon="0.90869">
        <ele>401</ele>
        <time>2013-04-12T13:43:46.000Z</time>
      </trkpt>
      <trkpt lat="43.20799" lon="0.90865">
        <ele>401</ele>
        <time>2013-04-12T13:43:50.000Z</time>
      </trkpt>
      <trkpt lat="43.20795" lon="0.9086">
        <ele>401.5</ele>
        <time>2013-04-12T13:43:59.000Z</time>
      </trkpt>
      <trkpt lat="43.20792" lon="0.90853">
        <ele>401</ele>
        <time>2013-04-12T13:44:07.000Z</time>
      </trkpt>
      <trkpt lat="43.20788" lon="0.90849">
        <ele>400.5</ele>
        <time>2013-04-12T13:44:12.000Z</time>
      </trkpt>
      <trkpt lat="43.20784" lon="0.90837">
        <ele>399.6</ele>
        <time>2013-04-12T13:44:24.000Z</time>
      </trkpt>
      <trkpt lat="43.20784" lon="0.90835">
        <ele>399.1</ele>
        <time>2013-04-12T13:44:26.000Z</time>
      </trkpt>
      <trkpt lat="43.20783" lon="0.90818">
        <ele>398.6</ele>
        <time>2013-04-12T13:44:38.000Z</time>
      </trkpt>
      <trkpt lat="43.20781" lon="0.90812">
        <ele>399.1</ele>
        <time>2013-04-12T13:44:46.000Z</time>
      </trkpt>
      <trkpt lat="43.20782" lon="0.90808">
        <ele>398.6</ele>
        <time>2013-04-12T13:44:50.000Z</time>
      </trkpt>
      <trkpt lat="43.20787" lon="0.90795">
        <ele>399.1</ele>
        <time>2013-04-12T13:45:00.000Z</time>
      </trkpt>
      <trkpt lat="43.20788" lon="0.90779">
        <ele>400.5</ele>
        <time>2013-04-12T13:45:10.000Z</time>
      </trkpt>
      <trkpt lat="43.20793" lon="0.90763">
        <ele>402.9</ele>
        <time>2013-04-12T13:45:23.000Z</time>
      </trkpt>
      <trkpt lat="43.20797" lon="0.90754">
        <ele>404.4</ele>
        <time>2013-04-12T13:45:31.000Z</time>
      </trkpt>
      <trkpt lat="43.20802" lon="0.9074">
        <ele>406.8</ele>
        <time>2013-04-12T13:45:43.000Z</time>
      </trkpt>
      <trkpt lat="43.20804" lon="0.90721">
        <ele>407.7</ele>
        <time>2013-04-12T13:45:55.000Z</time>
      </trkpt>
      <trkpt lat="43.20807" lon="0.90707">
        <ele>408.7</ele>
        <time>2013-04-12T13:46:06.000Z</time>
      </trkpt>
      <trkpt lat="43.20809" lon="0.90691">
        <ele>408.7</ele>
        <time>2013-04-12T13:46:17.000Z</time>
      </trkpt>
      <trkpt lat="43.20811" lon="0.90673">
        <ele>407.7</ele>
        <time>2013-04-12T13:46:28.000Z</time>
      </trkpt>
      <trkpt lat="43.20809" lon="0.90664">
        <ele>408.7</ele>
        <time>2013-04-12T13:46:38.000Z</time>
      </trkpt>
      <trkpt lat="43.20806" lon="0.90661">
        <ele>408.7</ele>
        <time>2013-04-12T13:46:49.000Z</time>
      </trkpt>
      <trkpt lat="43.20803" lon="0.90654">
        <ele>408.2</ele>
        <time>2013-04-12T13:47:02.000Z</time>
      </trkpt>
      <trkpt lat="43.20803" lon="0.90648">
        <ele>408.7</ele>
        <time>2013-04-12T13:47:19.000Z</time>
      </trkpt>
      <trkpt lat="43.2081" lon="0.90641">
        <ele>409.2</ele>
        <time>2013-04-12T13:47:31.000Z</time>
      </trkpt>
      <trkpt lat="43.20815" lon="0.90635">
        <ele>408.7</ele>
        <time>2013-04-12T13:47:41.000Z</time>
      </trkpt>
      <trkpt lat="43.20823" lon="0.90629">
        <ele>408.7</ele>
        <time>2013-04-12T13:47:56.000Z</time>
      </trkpt>
      <trkpt lat="43.20825" lon="0.90626">
        <ele>410.1</ele>
        <time>2013-04-12T13:48:14.000Z</time>
      </trkpt>
      <trkpt lat="43.20819" lon="0.90623">
        <ele>409.7</ele>
        <time>2013-04-12T13:48:34.000Z</time>
      </trkpt>
      <trkpt lat="43.20822" lon="0.90623">
        <ele>409.2</ele>
        <time>2013-04-12T13:49:00.000Z</time>
      </trkpt>
      <trkpt lat="43.20826" lon="0.90615">
        <ele>408.2</ele>
        <time>2013-04-12T13:49:09.000Z</time>
      </trkpt>
      <trkpt lat="43.2083" lon="0.90611">
        <ele>408.7</ele>
        <time>2013-04-12T13:49:20.000Z</time>
      </trkpt>
      <trkpt lat="43.20833" lon="0.90605">
        <ele>408.2</ele>
        <time>2013-04-12T13:49:36.000Z</time>
      </trkpt>
      <trkpt lat="43.20833" lon="0.90609">
        <ele>408.7</ele>
        <time>2013-04-12T13:49:44.000Z</time>
      </trkpt>
      <trkpt lat="43.20833" lon="0.90613">
        <ele>409.2</ele>
        <time>2013-04-12T13:50:06.000Z</time>
      </trkpt>
      <trkpt lat="43.2083" lon="0.90601">
        <ele>408.7</ele>
        <time>2013-04-12T13:50:23.000Z</time>
      </trkpt>
      <trkpt lat="43.20831" lon="0.90588">
        <ele>407.3</ele>
        <time>2013-04-12T13:50:34.000Z</time>
      </trkpt>
      <trkpt lat="43.20834" lon="0.90577">
        <ele>406.8</ele>
        <time>2013-04-12T13:50:43.000Z</time>
      </trkpt>
      <trkpt lat="43.2084" lon="0.90566">
        <ele>406.8</ele>
        <time>2013-04-12T13:50:53.000Z</time>
      </trkpt>
      <trkpt lat="43.20845" lon="0.90551">
        <ele>406.3</ele>
        <time>2013-04-12T13:51:06.000Z</time>
      </trkpt>
      <trkpt lat="43.20848" lon="0.90538">
        <ele>405.8</ele>
        <time>2013-04-12T13:51:15.000Z</time>
      </trkpt>
      <trkpt lat="43.20849" lon="0.90519">
        <ele>404.9</ele>
        <time>2013-04-12T13:51:27.000Z</time>
      </trkpt>
      <trkpt lat="43.20844" lon="0.90506">
        <ele>404.4</ele>
        <time>2013-04-12T13:51:40.000Z</time>
      </trkpt>
      <trkpt lat="43.2084" lon="0.90487">
        <ele>402.9</ele>
        <time>2013-04-12T13:51:51.000Z</time>
      </trkpt>
      <trkpt lat="43.20832" lon="0.90467">
        <ele>401.5</ele>
        <time>2013-04-12T13:52:05.000Z</time>
      </trkpt>
      <trkpt lat="43.20824" lon="0.90452">
        <ele>401</ele>
        <time>2013-04-12T13:52:17.000Z</time>
      </trkpt>
      <trkpt lat="43.20816" lon="0.90434">
        <ele>400.5</ele>
        <time>2013-04-12T13:52:29.000Z</time>
      </trkpt>
      <trkpt lat="43.20815" lon="0.90427">
        <ele>400.5</ele>
        <time>2013-04-12T13:52:33.000Z</time>
      </trkpt>
      <trkpt lat="43.20821" lon="0.90407">
        <ele>399.6</ele>
        <time>2013-04-12T13:52:47.000Z</time>
      </trkpt>
      <trkpt lat="43.20825" lon="0.90398">
        <ele>400</ele>
        <time>2013-04-12T13:52:57.000Z</time>
      </trkpt>
      <trkpt lat="43.20828" lon="0.90389">
        <ele>399.6</ele>
        <time>2013-04-12T13:53:10.000Z</time>
      </trkpt>
      <trkpt lat="43.20838" lon="0.90371">
        <ele>400.5</ele>
        <time>2013-04-12T13:53:25.000Z</time>
      </trkpt>
      <trkpt lat="43.2084" lon="0.90367">
        <ele>401</ele>
        <time>2013-04-12T13:53:32.000Z</time>
      </trkpt>
      <trkpt lat="43.20835" lon="0.90364">
        <ele>400.5</ele>
        <time>2013-04-12T13:53:37.000Z</time>
      </trkpt>
      <trkpt lat="43.20826" lon="0.90357">
        <ele>399.1</ele>
        <time>2013-04-12T13:53:49.000Z</time>
      </trkpt>
      <trkpt lat="43.20811" lon="0.90344">
        <ele>397.2</ele>
        <time>2013-04-12T13:54:04.000Z</time>
      </trkpt>
      <trkpt lat="43.20797" lon="0.90331">
        <ele>395.2</ele>
        <time>2013-04-12T13:54:18.000Z</time>
      </trkpt>
      <trkpt lat="43.20778" lon="0.90314">
        <ele>393.8</ele>
        <time>2013-04-12T13:54:36.000Z</time>
      </trkpt>
      <trkpt lat="43.20765" lon="0.90298">
        <ele>393.3</ele>
        <time>2013-04-12T13:54:52.000Z</time>
      </trkpt>
      <trkpt lat="43.20765" lon="0.90297">
        <ele>392.8</ele>
        <time>2013-04-12T13:54:53.000Z</time>
      </trkpt>
      <trkpt lat="43.2076" lon="0.90287">
        <ele>392.4</ele>
        <time>2013-04-12T14:00:46.000Z</time>
      </trkpt>
      <trkpt lat="43.2075" lon="0.90283">
        <ele>392.8</ele>
        <time>2013-04-12T14:00:57.000Z</time>
      </trkpt>
      <trkpt lat="43.20734" lon="0.9027">
        <ele>393.3</ele>
        <time>2013-04-12T14:01:12.000Z</time>
      </trkpt>
      <trkpt lat="43.20719" lon="0.90255">
        <ele>392.8</ele>
        <time>2013-04-12T14:01:25.000Z</time>
      </trkpt>
      <trkpt lat="43.207" lon="0.90236">
        <ele>390.4</ele>
        <time>2013-04-12T14:01:42.000Z</time>
      </trkpt>
      <trkpt lat="43.20685" lon="0.90221">
        <ele>389</ele>
        <time>2013-04-12T14:01:57.000Z</time>
      </trkpt>
      <trkpt lat="43.2067" lon="0.90208">
        <ele>388.5</ele>
        <time>2013-04-12T14:02:11.000Z</time>
      </trkpt>
      <trkpt lat="43.20659" lon="0.90198">
        <ele>387.5</ele>
        <time>2013-04-12T14:02:23.000Z</time>
      </trkpt>
      <trkpt lat="43.20646" lon="0.90183">
        <ele>387.1</ele>
        <time>2013-04-12T14:02:36.000Z</time>
      </trkpt>
      <trkpt lat="43.20637" lon="0.90172">
        <ele>386.6</ele>
        <time>2013-04-12T14:02:47.000Z</time>
      </trkpt>
      <trkpt lat="43.2063" lon="0.90163">
        <ele>387.1</ele>
        <time>2013-04-12T14:02:54.000Z</time>
      </trkpt>
      <trkpt lat="43.20618" lon="0.90144">
        <ele>386.6</ele>
        <time>2013-04-12T14:03:10.000Z</time>
      </trkpt>
      <trkpt lat="43.20614" lon="0.90136">
        <ele>387.1</ele>
        <time>2013-04-12T14:03:21.000Z</time>
      </trkpt>
      <trkpt lat="43.20604" lon="0.90113">
        <ele>387.5</ele>
        <time>2013-04-12T14:03:37.000Z</time>
      </trkpt>
      <trkpt lat="43.20595" lon="0.9009">
        <ele>387.5</ele>
        <time>2013-04-12T14:03:53.000Z</time>
      </trkpt>
      <trkpt lat="43.20586" lon="0.9007">
        <ele>388.5</ele>
        <time>2013-04-12T14:04:07.000Z</time>
      </trkpt>
      <trkpt lat="43.20576" lon="0.90048">
        <ele>388.5</ele>
        <time>2013-04-12T14:04:22.000Z</time>
      </trkpt>
      <trkpt lat="43.20565" lon="0.90026">
        <ele>390</ele>
        <time>2013-04-12T14:04:38.000Z</time>
      </trkpt>
      <trkpt lat="43.20551" lon="0.89997">
        <ele>391.4</ele>
        <time>2013-04-12T14:04:58.000Z</time>
      </trkpt>
      <trkpt lat="43.20541" lon="0.89974">
        <ele>389.5</ele>
        <time>2013-04-12T14:05:14.000Z</time>
      </trkpt>
      <trkpt lat="43.20533" lon="0.89957">
        <ele>394.8</ele>
        <time>2013-04-12T14:05:26.000Z</time>
      </trkpt>
      <trkpt lat="43.20532" lon="0.89956">
        <ele>383.7</ele>
        <time>2013-04-12T14:05:27.000Z</time>
      </trkpt>
      <trkpt lat="43.20532" lon="0.89954">
        <ele>396.7</ele>
        <time>2013-04-12T14:05:28.000Z</time>
      </trkpt>
      <trkpt lat="43.20531" lon="0.89953">
        <ele>393.8</ele>
        <time>2013-04-12T14:05:29.000Z</time>
      </trkpt>
      <trkpt lat="43.2053" lon="0.89952">
        <ele>389.5</ele>
        <time>2013-04-12T14:05:30.000Z</time>
      </trkpt>
      <trkpt lat="43.2053" lon="0.8995">
        <ele>389.5</ele>
        <time>2013-04-12T14:05:31.000Z</time>
      </trkpt>
      <trkpt lat="43.20529" lon="0.89939">
        <ele>390.9</ele>
        <time>2013-04-12T14:05:40.000Z</time>
      </trkpt>
      <trkpt lat="43.20548" lon="0.89937">
        <ele>390</ele>
        <time>2013-04-12T14:05:56.000Z</time>
      </trkpt>
      <trkpt lat="43.20562" lon="0.89936">
        <ele>390</ele>
        <time>2013-04-12T14:06:09.000Z</time>
      </trkpt>
      <trkpt lat="43.20578" lon="0.89933">
        <ele>389.5</ele>
        <time>2013-04-12T14:06:24.000Z</time>
      </trkpt>
      <trkpt lat="43.20599" lon="0.89931">
        <ele>389</ele>
        <time>2013-04-12T14:06:42.000Z</time>
      </trkpt>
      <trkpt lat="43.20618" lon="0.89929">
        <ele>389.5</ele>
        <time>2013-04-12T14:06:58.000Z</time>
      </trkpt>
      <trkpt lat="43.20641" lon="0.89927">
        <ele>388.5</ele>
        <time>2013-04-12T14:07:16.000Z</time>
      </trkpt>
      <trkpt lat="43.2066" lon="0.89925">
        <ele>389</ele>
        <time>2013-04-12T14:07:32.000Z</time>
      </trkpt>
      <trkpt lat="43.20685" lon="0.89923">
        <ele>390</ele>
        <time>2013-04-12T14:07:52.000Z</time>
      </trkpt>
      <trkpt lat="43.20704" lon="0.89921">
        <ele>390.9</ele>
        <time>2013-04-12T14:08:06.000Z</time>
      </trkpt>
      <trkpt lat="43.20728" lon="0.89918">
        <ele>390.9</ele>
        <time>2013-04-12T14:08:25.000Z</time>
      </trkpt>
      <trkpt lat="43.20752" lon="0.89916">
        <ele>392.8</ele>
        <time>2013-04-12T14:08:44.000Z</time>
      </trkpt>
      <trkpt lat="43.20766" lon="0.89915">
        <ele>391.9</ele>
        <time>2013-04-12T14:08:55.000Z</time>
      </trkpt>
      <trkpt lat="43.20786" lon="0.89913">
        <ele>391.9</ele>
        <time>2013-04-12T14:09:11.000Z</time>
      </trkpt>
      <trkpt lat="43.20803" lon="0.89911">
        <ele>392.8</ele>
        <time>2013-04-12T14:09:25.000Z</time>
      </trkpt>
      <trkpt lat="43.20819" lon="0.89909">
        <ele>394.3</ele>
        <time>2013-04-12T14:09:39.000Z</time>
      </trkpt>
      <trkpt lat="43.20821" lon="0.89909">
        <ele>394.3</ele>
        <time>2013-04-12T14:09:40.000Z</time>
      </trkpt>
      <trkpt lat="43.20838" lon="0.89907">
        <ele>395.7</ele>
        <time>2013-04-12T14:09:54.000Z</time>
      </trkpt>
      <trkpt lat="43.20848" lon="0.89907">
        <ele>397.2</ele>
        <time>2013-04-12T14:10:03.000Z</time>
      </trkpt>
      <trkpt lat="43.20867" lon="0.89904">
        <ele>398.6</ele>
        <time>2013-04-12T14:10:18.000Z</time>
      </trkpt>
      <trkpt lat="43.20876" lon="0.89903">
        <ele>401.5</ele>
        <time>2013-04-12T14:10:27.000Z</time>
      </trkpt>
      <trkpt lat="43.20891" lon="0.899">
        <ele>403.9</ele>
        <time>2013-04-12T14:10:41.000Z</time>
      </trkpt>
      <trkpt lat="43.20905" lon="0.89898">
        <ele>406.3</ele>
        <time>2013-04-12T14:10:54.000Z</time>
      </trkpt>
      <trkpt lat="43.20917" lon="0.89896">
        <ele>407.7</ele>
        <time>2013-04-12T14:11:04.000Z</time>
      </trkpt>
      <trkpt lat="43.20927" lon="0.89888">
        <ele>409.2</ele>
        <time>2013-04-12T14:11:12.000Z</time>
      </trkpt>
      <trkpt lat="43.20934" lon="0.89878">
        <ele>410.1</ele>
        <time>2013-04-12T14:11:22.000Z</time>
      </trkpt>
      <trkpt lat="43.2094" lon="0.89873">
        <ele>409.7</ele>
        <time>2013-04-12T14:11:32.000Z</time>
      </trkpt>
      <trkpt lat="43.20952" lon="0.89858">
        <ele>410.6</ele>
        <time>2013-04-12T14:11:47.000Z</time>
      </trkpt>
      <trkpt lat="43.2097" lon="0.89858">
        <ele>410.6</ele>
        <time>2013-04-12T14:12:03.000Z</time>
      </trkpt>
      <trkpt lat="43.20982" lon="0.89849">
        <ele>411.1</ele>
        <time>2013-04-12T14:12:15.000Z</time>
      </trkpt>
      <trkpt lat="43.20983" lon="0.89842">
        <ele>411.1</ele>
        <time>2013-04-12T14:12:19.000Z</time>
      </trkpt>
      <trkpt lat="43.20981" lon="0.89833">
        <ele>412.1</ele>
        <time>2013-04-12T14:12:25.000Z</time>
      </trkpt>
      <trkpt lat="43.20978" lon="0.89825">
        <ele>413</ele>
        <time>2013-04-12T14:12:32.000Z</time>
      </trkpt>
      <trkpt lat="43.20966" lon="0.89811">
        <ele>413.5</ele>
        <time>2013-04-12T14:12:46.000Z</time>
      </trkpt>
      <trkpt lat="43.20957" lon="0.89799">
        <ele>413.5</ele>
        <time>2013-04-12T14:12:59.000Z</time>
      </trkpt>
      <trkpt lat="43.20954" lon="0.89793">
        <ele>413</ele>
        <time>2013-04-12T14:13:10.000Z</time>
      </trkpt>
      <trkpt lat="43.20955" lon="0.89788">
        <ele>415.9</ele>
        <time>2013-04-12T14:13:16.000Z</time>
      </trkpt>
      <trkpt lat="43.20957" lon="0.89785">
        <ele>416.4</ele>
        <time>2013-04-12T14:13:28.000Z</time>
      </trkpt>
      <trkpt lat="43.20968" lon="0.89777">
        <ele>417.3</ele>
        <time>2013-04-12T14:13:39.000Z</time>
      </trkpt>
      <trkpt lat="43.20975" lon="0.89768">
        <ele>417.3</ele>
        <time>2013-04-12T14:13:49.000Z</time>
      </trkpt>
      <trkpt lat="43.20984" lon="0.89756">
        <ele>417.8</ele>
        <time>2013-04-12T14:14:02.000Z</time>
      </trkpt>
      <trkpt lat="43.20993" lon="0.89747">
        <ele>417.3</ele>
        <time>2013-04-12T14:14:14.000Z</time>
      </trkpt>
      <trkpt lat="43.21005" lon="0.89739">
        <ele>415.9</ele>
        <time>2013-04-12T14:14:24.000Z</time>
      </trkpt>
      <trkpt lat="43.21007" lon="0.89729">
        <ele>414.5</ele>
        <time>2013-04-12T14:14:33.000Z</time>
      </trkpt>
      <trkpt lat="43.21005" lon="0.89716">
        <ele>415.9</ele>
        <time>2013-04-12T14:14:44.000Z</time>
      </trkpt>
      <trkpt lat="43.21004" lon="0.89705">
        <ele>416.4</ele>
        <time>2013-04-12T14:14:54.000Z</time>
      </trkpt>
      <trkpt lat="43.21002" lon="0.89692">
        <ele>416.4</ele>
        <time>2013-04-12T14:15:04.000Z</time>
      </trkpt>
      <trkpt lat="43.21011" lon="0.89683">
        <ele>415.4</ele>
        <time>2013-04-12T14:15:16.000Z</time>
      </trkpt>
      <trkpt lat="43.2102" lon="0.89681">
        <ele>415.4</ele>
        <time>2013-04-12T14:15:24.000Z</time>
      </trkpt>
      <trkpt lat="43.21031" lon="0.89674">
        <ele>414.9</ele>
        <time>2013-04-12T14:15:35.000Z</time>
      </trkpt>
      <trkpt lat="43.21035" lon="0.89662">
        <ele>416.4</ele>
        <time>2013-04-12T14:15:46.000Z</time>
      </trkpt>
      <trkpt lat="43.21037" lon="0.89648">
        <ele>415.4</ele>
        <time>2013-04-12T14:15:56.000Z</time>
      </trkpt>
      <trkpt lat="43.2104" lon="0.89632">
        <ele>415.9</ele>
        <time>2013-04-12T14:16:07.000Z</time>
      </trkpt>
      <trkpt lat="43.21045" lon="0.8962">
        <ele>416.9</ele>
        <time>2013-04-12T14:16:20.000Z</time>
      </trkpt>
      <trkpt lat="43.21055" lon="0.8961">
        <ele>418.3</ele>
        <time>2013-04-12T14:16:29.000Z</time>
      </trkpt>
      <trkpt lat="43.21063" lon="0.89597">
        <ele>418.8</ele>
        <time>2013-04-12T14:16:39.000Z</time>
      </trkpt>
      <trkpt lat="43.21074" lon="0.89592">
        <ele>416.9</ele>
        <time>2013-04-12T14:16:50.000Z</time>
      </trkpt>
      <trkpt lat="43.21084" lon="0.89583">
        <ele>415.4</ele>
        <time>2013-04-12T14:17:00.000Z</time>
      </trkpt>
      <trkpt lat="43.2109" lon="0.89572">
        <ele>413</ele>
        <time>2013-04-12T14:17:15.000Z</time>
      </trkpt>
      <trkpt lat="43.21092" lon="0.89557">
        <ele>413.5</ele>
        <time>2013-04-12T14:17:26.000Z</time>
      </trkpt>
      <trkpt lat="43.21095" lon="0.89546">
        <ele>413</ele>
        <time>2013-04-12T14:17:35.000Z</time>
      </trkpt>
      <trkpt lat="43.21099" lon="0.89529">
        <ele>411.1</ele>
        <time>2013-04-12T14:17:48.000Z</time>
      </trkpt>
      <trkpt lat="43.21106" lon="0.89519">
        <ele>410.6</ele>
        <time>2013-04-12T14:17:56.000Z</time>
      </trkpt>
      <trkpt lat="43.21109" lon="0.89506">
        <ele>409.2</ele>
        <time>2013-04-12T14:18:05.000Z</time>
      </trkpt>
      <trkpt lat="43.2111" lon="0.8949">
        <ele>407.3</ele>
        <time>2013-04-12T14:18:14.000Z</time>
      </trkpt>
      <trkpt lat="43.21117" lon="0.89473">
        <ele>407.3</ele>
        <time>2013-04-12T14:18:25.000Z</time>
      </trkpt>
      <trkpt lat="43.21125" lon="0.89456">
        <ele>405.3</ele>
        <time>2013-04-12T14:18:37.000Z</time>
      </trkpt>
      <trkpt lat="43.21131" lon="0.89437">
        <ele>403.9</ele>
        <time>2013-04-12T14:18:51.000Z</time>
      </trkpt>
      <trkpt lat="43.21136" lon="0.89424">
        <ele>402.4</ele>
        <time>2013-04-12T14:19:01.000Z</time>
      </trkpt>
      <trkpt lat="43.2114" lon="0.89408">
        <ele>402</ele>
        <time>2013-04-12T14:19:10.000Z</time>
      </trkpt>
      <trkpt lat="43.21143" lon="0.89387">
        <ele>401.5</ele>
        <time>2013-04-12T14:19:24.000Z</time>
      </trkpt>
      <trkpt lat="43.21149" lon="0.89362">
        <ele>401.5</ele>
        <time>2013-04-12T14:19:40.000Z</time>
      </trkpt>
      <trkpt lat="43.21153" lon="0.89344">
        <ele>401.5</ele>
        <time>2013-04-12T14:19:52.000Z</time>
      </trkpt>
      <trkpt lat="43.21156" lon="0.89332">
        <ele>402</ele>
        <time>2013-04-12T14:20:00.000Z</time>
      </trkpt>
      <trkpt lat="43.21161" lon="0.89319">
        <ele>402</ele>
        <time>2013-04-12T14:20:10.000Z</time>
      </trkpt>
      <trkpt lat="43.21171" lon="0.89304">
        <ele>401</ele>
        <time>2013-04-12T14:20:21.000Z</time>
      </trkpt>
      <trkpt lat="43.21181" lon="0.89287">
        <ele>400</ele>
        <time>2013-04-12T14:20:32.000Z</time>
      </trkpt>
      <trkpt lat="43.21191" lon="0.89268">
        <ele>399.6</ele>
        <time>2013-04-12T14:20:43.000Z</time>
      </trkpt>
      <trkpt lat="43.21195" lon="0.89262">
        <ele>399.1</ele>
        <time>2013-04-12T14:20:47.000Z</time>
      </trkpt>
      <trkpt lat="43.21202" lon="0.89247">
        <ele>398.6</ele>
        <time>2013-04-12T14:20:57.000Z</time>
      </trkpt>
      <trkpt lat="43.21206" lon="0.89231">
        <ele>397.6</ele>
        <time>2013-04-12T14:21:07.000Z</time>
      </trkpt>
      <trkpt lat="43.21209" lon="0.89217">
        <ele>396.7</ele>
        <time>2013-04-12T14:21:16.000Z</time>
      </trkpt>
      <trkpt lat="43.21213" lon="0.89199">
        <ele>396.2</ele>
        <time>2013-04-12T14:21:27.000Z</time>
      </trkpt>
      <trkpt lat="43.21214" lon="0.89185">
        <ele>395.7</ele>
        <time>2013-04-12T14:21:36.000Z</time>
      </trkpt>
      <trkpt lat="43.21218" lon="0.89174">
        <ele>395.2</ele>
        <time>2013-04-12T14:21:45.000Z</time>
      </trkpt>
      <trkpt lat="43.21221" lon="0.89159">
        <ele>394.8</ele>
        <time>2013-04-12T14:21:55.000Z</time>
      </trkpt>
      <trkpt lat="43.21221" lon="0.89148">
        <ele>393.8</ele>
        <time>2013-04-12T14:22:03.000Z</time>
      </trkpt>
      <trkpt lat="43.21221" lon="0.89137">
        <ele>392.4</ele>
        <time>2013-04-12T14:22:11.000Z</time>
      </trkpt>
      <trkpt lat="43.21223" lon="0.89122">
        <ele>391.4</ele>
        <time>2013-04-12T14:22:21.000Z</time>
      </trkpt>
      <trkpt lat="43.21226" lon="0.89107">
        <ele>390.9</ele>
        <time>2013-04-12T14:22:32.000Z</time>
      </trkpt>
      <trkpt lat="43.2123" lon="0.89094">
        <ele>390</ele>
        <time>2013-04-12T14:22:41.000Z</time>
      </trkpt>
      <trkpt lat="43.21233" lon="0.89077">
        <ele>390.4</ele>
        <time>2013-04-12T14:22:53.000Z</time>
      </trkpt>
      <trkpt lat="43.21236" lon="0.89056">
        <ele>390</ele>
        <time>2013-04-12T14:23:08.000Z</time>
      </trkpt>
      <trkpt lat="43.2124" lon="0.89044">
        <ele>390</ele>
        <time>2013-04-12T14:23:17.000Z</time>
      </trkpt>
      <trkpt lat="43.21245" lon="0.89026">
        <ele>390.4</ele>
        <time>2013-04-12T14:23:28.000Z</time>
      </trkpt>
      <trkpt lat="43.21255" lon="0.89007">
        <ele>393.3</ele>
        <time>2013-04-12T14:23:40.000Z</time>
      </trkpt>
      <trkpt lat="43.21263" lon="0.88992">
        <ele>395.2</ele>
        <time>2013-04-12T14:23:51.000Z</time>
      </trkpt>
      <trkpt lat="43.21266" lon="0.88976">
        <ele>397.2</ele>
        <time>2013-04-12T14:24:03.000Z</time>
      </trkpt>
      <trkpt lat="43.21267" lon="0.88975">
        <ele>397.2</ele>
        <time>2013-04-12T14:24:04.000Z</time>
      </trkpt>
      <trkpt lat="43.21274" lon="0.88967">
        <ele>397.6</ele>
        <time>2013-04-12T14:24:13.000Z</time>
      </trkpt>
      <trkpt lat="43.21278" lon="0.88956">
        <ele>398.1</ele>
        <time>2013-04-12T14:24:22.000Z</time>
      </trkpt>
      <trkpt lat="43.2128" lon="0.88944">
        <ele>399.1</ele>
        <time>2013-04-12T14:24:31.000Z</time>
      </trkpt>
      <trkpt lat="43.21284" lon="0.88934">
        <ele>400</ele>
        <time>2013-04-12T14:24:39.000Z</time>
      </trkpt>
      <trkpt lat="43.21287" lon="0.88929">
        <ele>401.5</ele>
        <time>2013-04-12T14:24:43.000Z</time>
      </trkpt>
      <trkpt lat="43.21293" lon="0.88922">
        <ele>402</ele>
        <time>2013-04-12T14:24:51.000Z</time>
      </trkpt>
      <trkpt lat="43.21298" lon="0.8891">
        <ele>403.9</ele>
        <time>2013-04-12T14:25:00.000Z</time>
      </trkpt>
      <trkpt lat="43.21299" lon="0.88905">
        <ele>405.3</ele>
        <time>2013-04-12T14:25:04.000Z</time>
      </trkpt>
      <trkpt lat="43.21311" lon="0.88892">
        <ele>405.3</ele>
        <time>2013-04-12T14:25:16.000Z</time>
      </trkpt>
      <trkpt lat="43.21324" lon="0.88883">
        <ele>405.8</ele>
        <time>2013-04-12T14:25:31.000Z</time>
      </trkpt>
      <trkpt lat="43.21329" lon="0.88871">
        <ele>405.3</ele>
        <time>2013-04-12T14:25:42.000Z</time>
      </trkpt>
      <trkpt lat="43.21332" lon="0.88854">
        <ele>405.8</ele>
        <time>2013-04-12T14:25:55.000Z</time>
      </trkpt>
      <trkpt lat="43.21332" lon="0.88852">
        <ele>405.3</ele>
        <time>2013-04-12T14:25:56.000Z</time>
      </trkpt>
      <trkpt lat="43.21326" lon="0.88829">
        <ele>404.9</ele>
        <time>2013-04-12T14:26:11.000Z</time>
      </trkpt>
      <trkpt lat="43.21321" lon="0.88807">
        <ele>403.4</ele>
        <time>2013-04-12T14:26:27.000Z</time>
      </trkpt>
      <trkpt lat="43.21314" lon="0.88787">
        <ele>401.5</ele>
        <time>2013-04-12T14:26:41.000Z</time>
      </trkpt>
      <trkpt lat="43.21315" lon="0.88778">
        <ele>401</ele>
        <time>2013-04-12T14:26:48.000Z</time>
      </trkpt>
      <trkpt lat="43.21322" lon="0.88764">
        <ele>400</ele>
        <time>2013-04-12T14:27:01.000Z</time>
      </trkpt>
      <trkpt lat="43.21328" lon="0.88758">
        <ele>400</ele>
        <time>2013-04-12T14:27:12.000Z</time>
      </trkpt>
      <trkpt lat="43.21337" lon="0.8875">
        <ele>399.6</ele>
        <time>2013-04-12T14:27:22.000Z</time>
      </trkpt>
      <trkpt lat="43.21345" lon="0.88742">
        <ele>398.1</ele>
        <time>2013-04-12T14:27:32.000Z</time>
      </trkpt>
      <trkpt lat="43.21359" lon="0.88731">
        <ele>397.2</ele>
        <time>2013-04-12T14:27:44.000Z</time>
      </trkpt>
      <trkpt lat="43.21369" lon="0.88724">
        <ele>397.6</ele>
        <time>2013-04-12T14:27:56.000Z</time>
      </trkpt>
      <trkpt lat="43.21373" lon="0.88719">
        <ele>397.2</ele>
        <time>2013-04-12T14:28:06.000Z</time>
      </trkpt>
      <trkpt lat="43.21383" lon="0.88711">
        <ele>396.7</ele>
        <time>2013-04-12T14:28:17.000Z</time>
      </trkpt>
      <trkpt lat="43.21389" lon="0.88705">
        <ele>396.2</ele>
        <time>2013-04-12T14:28:31.000Z</time>
      </trkpt>
      <trkpt lat="43.21404" lon="0.88691">
        <ele>395.7</ele>
        <time>2013-04-12T14:28:47.000Z</time>
      </trkpt>
      <trkpt lat="43.21411" lon="0.88681">
        <ele>395.2</ele>
        <time>2013-04-12T14:28:57.000Z</time>
      </trkpt>
      <trkpt lat="43.2142" lon="0.88669">
        <ele>394.8</ele>
        <time>2013-04-12T14:29:08.000Z</time>
      </trkpt>
      <trkpt lat="43.21431" lon="0.88654">
        <ele>394.8</ele>
        <time>2013-04-12T14:29:21.000Z</time>
      </trkpt>
      <trkpt lat="43.21441" lon="0.88638">
        <ele>393.3</ele>
        <time>2013-04-12T14:29:34.000Z</time>
      </trkpt>
      <trkpt lat="43.21454" lon="0.8862">
        <ele>390.4</ele>
        <time>2013-04-12T14:29:51.000Z</time>
      </trkpt>
      <trkpt lat="43.21465" lon="0.88606">
        <ele>388.5</ele>
        <time>2013-04-12T14:30:04.000Z</time>
      </trkpt>
      <trkpt lat="43.21474" lon="0.88592">
        <ele>386.6</ele>
        <time>2013-04-12T14:30:16.000Z</time>
      </trkpt>
      <trkpt lat="43.21481" lon="0.8858">
        <ele>384.7</ele>
        <time>2013-04-12T14:30:27.000Z</time>
      </trkpt>
      <trkpt lat="43.21485" lon="0.88569">
        <ele>383.2</ele>
        <time>2013-04-12T14:30:36.000Z</time>
      </trkpt>
      <trkpt lat="43.21487" lon="0.88556">
        <ele>381.8</ele>
        <time>2013-04-12T14:30:45.000Z</time>
      </trkpt>
      <trkpt lat="43.21492" lon="0.8854">
        <ele>380.8</ele>
        <time>2013-04-12T14:30:55.000Z</time>
      </trkpt>
      <trkpt lat="43.21502" lon="0.88525">
        <ele>379.4</ele>
        <time>2013-04-12T14:31:08.000Z</time>
      </trkpt>
      <trkpt lat="43.21512" lon="0.88509">
        <ele>376</ele>
        <time>2013-04-12T14:31:22.000Z</time>
      </trkpt>
      <trkpt lat="43.21519" lon="0.88495">
        <ele>373.1</ele>
        <time>2013-04-12T14:31:34.000Z</time>
      </trkpt>
      <trkpt lat="43.21525" lon="0.88481">
        <ele>369.8</ele>
        <time>2013-04-12T14:31:47.000Z</time>
      </trkpt>
      <trkpt lat="43.21527" lon="0.88477">
        <ele>368.3</ele>
        <time>2013-04-12T14:31:52.000Z</time>
      </trkpt>
      <trkpt lat="43.21533" lon="0.88465">
        <ele>365</ele>
        <time>2013-04-12T14:32:04.000Z</time>
      </trkpt>
      <trkpt lat="43.21535" lon="0.88463">
        <ele>364</ele>
        <time>2013-04-12T14:32:06.000Z</time>
      </trkpt>
      <trkpt lat="43.21545" lon="0.88446">
        <ele>363</ele>
        <time>2013-04-12T14:32:18.000Z</time>
      </trkpt>
      <trkpt lat="43.21557" lon="0.88428">
        <ele>364</ele>
        <time>2013-04-12T14:32:31.000Z</time>
      </trkpt>
      <trkpt lat="43.21558" lon="0.88421">
        <ele>364.5</ele>
        <time>2013-04-12T14:32:37.000Z</time>
      </trkpt>
      <trkpt lat="43.21557" lon="0.88406">
        <ele>365.4</ele>
        <time>2013-04-12T14:32:48.000Z</time>
      </trkpt>
      <trkpt lat="43.21566" lon="0.88397">
        <ele>365.4</ele>
        <time>2013-04-12T14:32:53.000Z</time>
      </trkpt>
      <trkpt lat="43.21584" lon="0.88386">
        <ele>366.9</ele>
        <time>2013-04-12T14:33:04.000Z</time>
      </trkpt>
      <trkpt lat="43.21589" lon="0.88365">
        <ele>367.4</ele>
        <time>2013-04-12T14:33:17.000Z</time>
      </trkpt>
      <trkpt lat="43.21592" lon="0.88362">
        <ele>367.4</ele>
        <time>2013-04-12T14:33:20.000Z</time>
      </trkpt>
      <trkpt lat="43.21595" lon="0.88358">
        <ele>366.9</ele>
        <time>2013-04-12T14:33:23.000Z</time>
      </trkpt>
      <trkpt lat="43.21602" lon="0.8834">
        <ele>368.8</ele>
        <time>2013-04-12T14:33:35.000Z</time>
      </trkpt>
      <trkpt lat="43.21611" lon="0.88329">
        <ele>369.3</ele>
        <time>2013-04-12T14:33:47.000Z</time>
      </trkpt>
      <trkpt lat="43.2162" lon="0.88315">
        <ele>369.8</ele>
        <time>2013-04-12T14:33:58.000Z</time>
      </trkpt>
      <trkpt lat="43.21617" lon="0.88296">
        <ele>369.3</ele>
        <time>2013-04-12T14:34:11.000Z</time>
      </trkpt>
      <trkpt lat="43.21619" lon="0.88295">
        <ele>370.2</ele>
        <time>2013-04-12T14:34:20.000Z</time>
      </trkpt>
      <trkpt lat="43.2162" lon="0.88297">
        <ele>370.2</ele>
        <time>2013-04-12T14:34:25.000Z</time>
      </trkpt>
      <trkpt lat="43.2162" lon="0.88292">
        <ele>369.8</ele>
        <time>2013-04-12T14:34:37.000Z</time>
      </trkpt>
      <trkpt lat="43.2162" lon="0.88292">
        <ele>369.8</ele>
        <time>2013-04-12T14:34:56.000Z</time>
      </trkpt>
      <trkpt lat="43.21619" lon="0.8829">
        <ele>370.7</ele>
        <time>2013-04-12T14:35:13.000Z</time>
      </trkpt>
      <trkpt lat="43.21619" lon="0.88291">
        <ele>369.8</ele>
        <time>2013-04-12T14:35:25.000Z</time>
      </trkpt>
      <trkpt lat="43.21596" lon="0.88231">
        <ele>381.7</ele>
      </trkpt>
      <trkpt lat="43.21685" lon="0.8825">
        <ele>383.3</ele>
      </trkpt>
      <trkpt lat="43.21739" lon="0.88162">
        <ele>388.3</ele>
      </trkpt>
      <trkpt lat="43.21825" lon="0.88098">
        <ele>395.6</ele>
      </trkpt>
      <trkpt lat="43.21906" lon="0.88041">
        <ele>401.4</ele>
      </trkpt>
      <trkpt lat="43.22021" lon="0.87914">
        <ele>391.4</ele>
      </trkpt>
      <trkpt lat="43.22043" lon="0.87838">
        <ele>389</ele>
      </trkpt>
      <trkpt lat="43.22092" lon="0.87756">
        <ele>375.6</ele>
      </trkpt>
      <trkpt lat="43.22133" lon="0.87718">
        <ele>369.3</ele>
      </trkpt>
      <trkpt lat="43.22164" lon="0.87788">
        <ele>361.1</ele>
      </trkpt>
      <trkpt lat="43.22137" lon="0.87889">
        <ele>360.2</ele>
      </trkpt>
      <trkpt lat="43.2225" lon="0.8799">
        <ele>353.4</ele>
      </trkpt>
      <trkpt lat="43.22313" lon="0.88111">
        <ele>366.8</ele>
      </trkpt>
      <trkpt lat="43.22389" lon="0.88086">
        <ele>367.1</ele>
      </trkpt>
      <trkpt lat="43.22456" lon="0.87971">
        <ele>359.1</ele>
      </trkpt>
      <trkpt lat="43.22564" lon="0.88048">
        <ele>366.9</ele>
      </trkpt>
      <trkpt lat="43.22658" lon="0.88079">
        <ele>376.8</ele>
      </trkpt>
      <trkpt lat="43.22762" lon="0.88124">
        <ele>385.2</ele>
      </trkpt>
      <trkpt lat="43.22825" lon="0.88206">
        <ele>394.6</ele>
      </trkpt>
      <trkpt lat="43.22919" lon="0.88257">
        <ele>398.6</ele>
      </trkpt>
      <trkpt lat="43.22923" lon="0.8826">
        <ele>398.8</ele>
      </trkpt>
      <trkpt lat="43.23013" lon="0.88269">
        <ele>394.1</ele>
      </trkpt>
      <trkpt lat="43.23094" lon="0.88326">
        <ele>391.1</ele>
      </trkpt>
      <trkpt lat="43.23224" lon="0.88453">
        <ele>378.2</ele>
      </trkpt>
      <trkpt lat="43.23287" lon="0.88485">
        <ele>369</ele>
      </trkpt>
      <trkpt lat="43.2331" lon="0.88447">
        <ele>367.1</ele>
      </trkpt>
      <trkpt lat="43.23422" lon="0.88447">
        <ele>357.9</ele>
      </trkpt>
      <trkpt lat="43.2357" lon="0.88421">
        <ele>340.1</ele>
      </trkpt>
      <trkpt lat="43.23651" lon="0.8844">
        <ele>329.8</ele>
      </trkpt>
      <trkpt lat="43.23727" lon="0.88529">
        <ele>327.4</ele>
      </trkpt>
      <trkpt lat="43.23772" lon="0.88605">
        <ele>321</ele>
      </trkpt>
      <trkpt lat="43.23858" lon="0.88675">
        <ele>305.4</ele>
      </trkpt>
      <trkpt lat="43.23813" lon="0.88808">
        <ele>318.6</ele>
      </trkpt>
      <trkpt lat="43.23813" lon="0.88846">
        <ele>321.7</ele>
      </trkpt>
      <trkpt lat="43.23853" lon="0.88903">
        <ele>317.9</ele>
      </trkpt>
      <trkpt lat="43.23903" lon="0.89043">
        <ele>328.6</ele>
      </trkpt>
      <trkpt lat="43.23961" lon="0.89068">
        <ele>336</ele>
      </trkpt>
      <trkpt lat="43.23992" lon="0.89271">
        <ele>325.6</ele>
      </trkpt>
      <trkpt lat="43.23992" lon="0.89632">
        <ele>344.8</ele>
      </trkpt>
      <trkpt lat="43.23988" lon="0.89905">
        <ele>356.4</ele>
      </trkpt>
      <trkpt lat="43.23947" lon="0.90145">
        <ele>353.9</ele>
      </trkpt>
      <trkpt lat="43.2392" lon="0.90298">
        <ele>350.2</ele>
      </trkpt>
      <trkpt lat="43.23858" lon="0.90399">
        <ele>347.6</ele>
      </trkpt>
      <trkpt lat="43.23813" lon="0.905">
        <ele>345.2</ele>
      </trkpt>
      <trkpt lat="43.23763" lon="0.90551">
        <ele>334.5</ele>
      </trkpt>
      <trkpt lat="43.23714" lon="0.90589">
        <ele>324.9</ele>
      </trkpt>
      <trkpt lat="43.23673" lon="0.90665">
        <ele>313.5</ele>
      </trkpt>
      <trkpt lat="43.23624" lon="0.90659">
        <ele>310.1</ele>
      </trkpt>
      <trkpt lat="43.23615" lon="0.90735">
        <ele>304.6</ele>
      </trkpt>
    </trkseg>
  </trk>
</gpx>